Observation data for Van Horn on 07/12/2020      Previous  Date  Next       Current Mesonet Observations  Soil Data  Daily Summary Page  Observations in Plain Language
KVA1 120500Z 18009KT 32/04 A3011 RMK A01 T03190038  RH  017%=      5-min Rain = 0
KVA1 120501Z 19010KT 32/04 A3011 RMK A01 T03190038  RH  017%=      5-min Rain = 0
KVA1 120502Z 18010KT 32/04 A3011 RMK A01 T03190038  RH  017%=      5-min Rain = 0
KVA1 120503Z 19009KT 32/04 A3011 RMK A01 T03200039  RH  017%=      5-min Rain = 0
KVA1 120504Z 18009KT 32/04 A3011 RMK A01 T03200040  RH  017%=      5-min Rain = 0
KVA1 120505Z 19010KT 32/04 A3011 RMK A01 T03200042  RH  017%=      5-min Rain = 0
KVA1 120506Z 19010KT 32/04 A3011 RMK A01 T03200043  RH  017%=      5-min Rain = 0
KVA1 120507Z 19010KT 32/04 A3011 RMK A01 T03200044  RH  018%=      5-min Rain = 0
KVA1 120508Z 19010KT 32/05 A3011 RMK A01 T03200045  RH  018%=      5-min Rain = 0
KVA1 120509Z 18009KT 32/05 A3011 RMK A01 T03200046  RH  018%=      5-min Rain = 0
KVA1 120510Z 19010KT 32/05 A3011 RMK A01 T03200048  RH  018%=      5-min Rain = 0
KVA1 120511Z 19010KT 32/05 A3011 RMK A01 T03200049  RH  018%=      5-min Rain = 0
KVA1 120512Z 19010KT 32/05 A3011 RMK A01 T03200051  RH  018%=      5-min Rain = 0
KVA1 120513Z 18011KT 32/05 A3011 RMK A01 T03200052  RH  019%=      5-min Rain = 0
KVA1 120514Z 19009KT 32/05 A3011 RMK A01 T03200054  RH  019%=      5-min Rain = 0
KVA1 120515Z 19009KT 32/06 A3011 RMK A01 T03190055  RH  019%=      5-min Rain = 0
KVA1 120516Z 19010KT 32/06 A3011 RMK A01 T03180056  RH  019%=      5-min Rain = 0
KVA1 120517Z 18010KT 32/06 A3011 RMK A01 T03180057  RH  019%=      5-min Rain = 0
KVA1 120518Z 19010KT 32/06 A3011 RMK A01 T03180057  RH  019%=      5-min Rain = 0
KVA1 120519Z 19009KT 32/06 A3011 RMK A01 T03180057  RH  020%=      5-min Rain = 0
KVA1 120520Z 19009KT 32/06 A3011 RMK A01 T03170056  RH  019%=      5-min Rain = 0
KVA1 120521Z 19008KT 32/06 A3011 RMK A01 T03160056  RH  020%=      5-min Rain = 0
KVA1 120522Z 19010KT 32/06 A3011 RMK A01 T03150056  RH  020%=      5-min Rain = 0
KVA1 120523Z 19008KT 31/06 A3011 RMK A01 T03140056  RH  020%=      5-min Rain = 0
KVA1 120524Z 19008KT 31/06 A3011 RMK A01 T03140055  RH  020%=      5-min Rain = 0
KVA1 120525Z 19008KT 31/06 A3011 RMK A01 T03130056  RH  020%=      5-min Rain = 0
KVA1 120526Z 19008KT 31/06 A3011 RMK A01 T03120055  RH  020%=      5-min Rain = 0
KVA1 120527Z 20008KT 31/06 A3011 RMK A01 T03110055  RH  020%=      5-min Rain = 0
KVA1 120528Z 20008KT 31/06 A3011 RMK A01 T03110057  RH  020%=      5-min Rain = 0
KVA1 120529Z 19008KT 31/06 A3011 RMK A01 T03100058  RH  021%=      5-min Rain = 0
KVA1 120530Z 19008KT 31/06 A3011 RMK A01 T03100060  RH  021%=      5-min Rain = 0
KVA1 120531Z 19008KT 31/06 A3011 RMK A01 T03090060  RH  021%=      5-min Rain = 0
KVA1 120532Z 19008KT 31/06 A3011 RMK A01 T03090062  RH  021%=      5-min Rain = 0
KVA1 120533Z 19008KT 31/06 A3011 RMK A01 T03090062  RH  021%=      5-min Rain = 0
KVA1 120534Z 20008KT 31/06 A3011 RMK A01 T03090062  RH  021%=      5-min Rain = 0
KVA1 120535Z 20008KT 31/06 A3011 RMK A01 T03080062  RH  021%=      5-min Rain = 0
KVA1 120536Z 20007KT 31/06 A3011 RMK A01 T03080063  RH  021%=      5-min Rain = 0
KVA1 120537Z 19009KT 31/06 A3011 RMK A01 T03080062  RH  021%=      5-min Rain = 0
KVA1 120538Z 20008KT 31/06 A3011 RMK A01 T03070063  RH  022%=      5-min Rain = 0
KVA1 120539Z 20008KT 31/06 A3011 RMK A01 T03070063  RH  022%=      5-min Rain = 0
KVA1 120540Z 20009KT 31/06 A301 RMK A01 T03060064  RH  022%=      5-min Rain = 0
KVA1 120541Z 20008KT 31/07 A301 RMK A01 T03060066  RH  022%=      5-min Rain = 0
KVA1 120542Z 20009KT 31/07 A301 RMK A01 T03060066  RH  022%=      5-min Rain = 0
KVA1 120543Z 20008KT 31/07 A301 RMK A01 T03050066  RH  022%=      5-min Rain = 0
KVA1 120544Z 20009KT 31/07 A301 RMK A01 T03050066  RH  022%=      5-min Rain = 0
KVA1 120545Z 20007KT 30/07 A301 RMK A01 T03040066  RH  022%=      5-min Rain = 0
KVA1 120546Z 20008KT 30/07 A301 RMK A01 T03040066  RH  022%=      5-min Rain = 0
KVA1 120547Z 20008KT 30/07 A301 RMK A01 T03030066  RH  023%=      5-min Rain = 0
KVA1 120548Z 21007KT 30/07 A301 RMK A01 T03030067  RH  023%=      5-min Rain = 0
KVA1 120549Z 21007KT 30/07 A301 RMK A01 T03020067  RH  023%=      5-min Rain = 0
KVA1 120550Z 21007KT 30/07 A301 RMK A01 T03020067  RH  023%=      5-min Rain = 0
KVA1 120551Z 20006KT 30/07 A301 RMK A01 T03010066  RH  023%=      5-min Rain = 0
KVA1 120552Z 21006G11KT 30/07 A301 RMK A01 T03000067  RH  023%=      5-min Rain = 0
KVA1 120553Z 20008KT 30/07 A301 RMK A01 T03000068  RH  023%=      5-min Rain = 0
KVA1 120554Z 20009KT 30/07 A301 RMK A01 T03000069  RH  023%=      5-min Rain = 0
KVA1 120555Z 20007KT 30/07 A301 RMK A01 T03000069  RH  023%=      5-min Rain = 0
KVA1 120556Z 19009KT 30/07 A301 RMK A01 T03000069  RH  024%=      5-min Rain = 0
KVA1 120557Z 19010KT 30/07 A301 RMK A01 T02990070  RH  024%=      5-min Rain = 0
KVA1 120558Z 19008KT 30/07 A301 RMK A01 T03000071  RH  024%=      5-min Rain = 0
KVA1 120559Z 19010KT 30/07 A301 RMK A01 T02990071  RH  024%=      5-min Rain = 0
KVA1 120600Z 18010KT 30/07 A301 RMK A01 T02990071  RH  024%=      5-min Rain = 0
KVA1 120601Z 19009KT 30/07 A301 RMK A01 T03000072  RH  024%=      5-min Rain = 0
KVA1 120602Z 19010KT 30/07 A301 RMK A01 T02990072  RH  024%=      5-min Rain = 0
KVA1 120603Z 19011KT 30/07 A301 RMK A01 T02990073  RH  024%=      5-min Rain = 0
KVA1 120604Z 18011KT 30/07 A301 RMK A01 T02990073  RH  024%=      5-min Rain = 0
KVA1 120605Z 19010KT 30/07 A301 RMK A01 T02990074  RH  024%=      5-min Rain = 0
KVA1 120606Z 19011KT 30/08 A301 RMK A01 T02990075  RH  025%=      5-min Rain = 0
KVA1 120607Z 19010KT 30/08 A301 RMK A01 T02990076  RH  025%=      5-min Rain = 0
KVA1 120608Z 19011KT 30/08 A301 RMK A01 T02980076  RH  025%=      5-min Rain = 0
KVA1 120609Z 19010KT 30/08 A301 RMK A01 T02980076  RH  025%=      5-min Rain = 0
KVA1 120610Z 19010G15KT 30/08 A301 RMK A01 T02990077  RH  025%=      5-min Rain = 0
KVA1 120611Z 19011KT 30/08 A301 RMK A01 T02990078  RH  025%=      5-min Rain = 0
KVA1 120612Z 19009KT 30/08 A301 RMK A01 T02980077  RH  025%=      5-min Rain = 0
KVA1 120613Z 19010KT 30/08 A301 RMK A01 T02980077  RH  025%=      5-min Rain = 0
KVA1 120614Z 19011KT 30/08 A301 RMK A01 T02980077  RH  025%=      5-min Rain = 0
KVA1 120615Z 19009KT 30/08 A301 RMK A01 T02970077  RH  025%=      5-min Rain = 0
KVA1 120616Z 19010KT 30/08 A301 RMK A01 T02960077  RH  025%=      5-min Rain = 0
KVA1 120617Z 19012KT 30/08 A301 RMK A01 T02960078  RH  025%=      5-min Rain = 0
KVA1 120618Z 19011KT 30/08 A301 RMK A01 T02960079  RH  026%=      5-min Rain = 0
KVA1 120619Z 19011KT 30/08 A301 RMK A01 T02960079  RH  026%=      5-min Rain = 0
KVA1 120620Z 19011KT 30/08 A301 RMK A01 T02970080  RH  026%=      5-min Rain = 0
KVA1 120621Z 19011KT 30/08 A301 RMK A01 T02970080  RH  026%=      5-min Rain = 0
KVA1 120622Z 19010KT 30/08 A301 RMK A01 T02970080  RH  026%=      5-min Rain = 0
KVA1 120623Z 20010KT 30/08 A301 RMK A01 T02960080  RH  026%=      5-min Rain = 0
KVA1 120624Z 20008KT 30/08 A301 RMK A01 T02960080  RH  026%=      5-min Rain = 0
KVA1 120625Z 20011KT 30/08 A301 RMK A01 T02950080  RH  026%=      5-min Rain = 0
KVA1 120626Z 20010KT 30/08 A301 RMK A01 T02950080  RH  026%=      5-min Rain = 0
KVA1 120627Z 21009KT 29/08 A301 RMK A01 T02940080  RH  026%=      5-min Rain = 0
KVA1 120628Z 21009KT 29/08 A301 RMK A01 T02940079  RH  026%=      5-min Rain = 0
KVA1 120629Z 22009KT 29/08 A301 RMK A01 T02930079  RH  026%=      5-min Rain = 0
KVA1 120630Z 22009KT 29/08 A301 RMK A01 T02930080  RH  026%=      5-min Rain = 0
KVA1 120631Z 22008KT 29/08 A301 RMK A01 T02920080  RH  026%=      5-min Rain = 0
KVA1 120632Z 23009KT 29/08 A301 RMK A01 T02910079  RH  026%=      5-min Rain = 0
KVA1 120633Z 23008KT 29/08 A301 RMK A01 T02910079  RH  026%=      5-min Rain = 0
KVA1 120634Z 23008KT 29/08 A301 RMK A01 T02900078  RH  026%=      5-min Rain = 0
KVA1 120635Z 23007KT 29/08 A301 RMK A01 T02880078  RH  027%=      5-min Rain = 0
KVA1 120636Z 23008KT 29/08 A301 RMK A01 T02870078  RH  027%=      5-min Rain = 0
KVA1 120637Z 22007KT 29/08 A301 RMK A01 T02860078  RH  027%=      5-min Rain = 0
KVA1 120638Z 22008KT 29/08 A301 RMK A01 T02860079  RH  027%=      5-min Rain = 0
KVA1 120639Z 22009KT 29/08 A301 RMK A01 T02850080  RH  027%=      5-min Rain = 0
KVA1 120640Z 22009KT 29/08 A301 RMK A01 T02850080  RH  028%=      5-min Rain = 0
KVA1 120641Z 22009KT 29/08 A301 RMK A01 T02850081  RH  028%=      5-min Rain = 0
KVA1 120642Z 22009KT 29/08 A301 RMK A01 T02850081  RH  028%=      5-min Rain = 0
KVA1 120643Z 22009KT 29/08 A301 RMK A01 T02850081  RH  028%=      5-min Rain = 0
KVA1 120644Z 22010KT 29/08 A301 RMK A01 T02850082  RH  028%=      5-min Rain = 0
KVA1 120645Z 22009KT 29/08 A301 RMK A01 T02850082  RH  028%=      5-min Rain = 0
KVA1 120646Z 22008KT 29/08 A301 RMK A01 T02850082  RH  028%=      5-min Rain = 0
KVA1 120647Z 21009KT 29/08 A301 RMK A01 T02850083  RH  028%=      5-min Rain = 0
KVA1 120648Z 21009KT 29/08 A301 RMK A01 T02850083  RH  028%=      5-min Rain = 0
KVA1 120649Z 21009KT 28/08 A301 RMK A01 T02840083  RH  028%=      5-min Rain = 0
KVA1 120650Z 21009KT 28/08 A301 RMK A01 T02840084  RH  028%=      5-min Rain = 0
KVA1 120651Z 21009KT 28/08 A301 RMK A01 T02840083  RH  028%=      5-min Rain = 0
KVA1 120652Z 21008KT 28/08 A301 RMK A01 T02830084  RH  029%=      5-min Rain = 0
KVA1 120653Z 21008KT 28/08 A301 RMK A01 T02820083  RH  029%=      5-min Rain = 0
KVA1 120654Z 21008KT 28/08 A301 RMK A01 T02820084  RH  029%=      5-min Rain = 0
KVA1 120655Z 21009KT 28/08 A301 RMK A01 T02810084  RH  029%=      5-min Rain = 0
KVA1 120656Z 21008KT 28/09 A301 RMK A01 T02810085  RH  029%=      5-min Rain = 0
KVA1 120657Z 21009KT 28/09 A301 RMK A01 T02810085  RH  029%=      5-min Rain = 0
KVA1 120658Z 21009KT 28/09 A301 RMK A01 T02810086  RH  029%=      5-min Rain = 0
KVA1 120659Z 20009KT 28/09 A3009 RMK A01 T02810086  RH  029%=      5-min Rain = 0
KVA1 120700Z 20009KT 28/09 A3009 RMK A01 T02810087  RH  029%=      5-min Rain = 0
KVA1 120701Z 20010KT 28/09 A3009 RMK A01 T02810087  RH  030%=      5-min Rain = 0
KVA1 120702Z 20010KT 28/09 A3009 RMK A01 T02820088  RH  030%=      5-min Rain = 0
KVA1 120703Z 20010KT 28/09 A3009 RMK A01 T02820089  RH  030%=      5-min Rain = 0
KVA1 120704Z 20010KT 28/09 A3009 RMK A01 T02830089  RH  030%=      5-min Rain = 0
KVA1 120705Z 20009KT 28/09 A3009 RMK A01 T02840090  RH  030%=      5-min Rain = 0
KVA1 120706Z 19010KT 28/09 A3009 RMK A01 T02840090  RH  030%=      5-min Rain = 0
KVA1 120707Z 19010KT 28/09 A3009 RMK A01 T02840091  RH  030%=      5-min Rain = 0
KVA1 120708Z 19011KT 29/09 A3009 RMK A01 T02850091  RH  030%=      5-min Rain = 0
KVA1 120709Z 19010KT 29/09 A3009 RMK A01 T02860091  RH  030%=      5-min Rain = 0
KVA1 120710Z 20010KT 29/09 A3009 RMK A01 T02860091  RH  030%=      5-min Rain = 0
KVA1 120711Z 20009KT 29/09 A3009 RMK A01 T02860091  RH  030%=      5-min Rain = 0
KVA1 120712Z 20009KT 29/09 A3009 RMK A01 T02860091  RH  030%=      5-min Rain = 0
KVA1 120713Z 20009KT 29/09 A3009 RMK A01 T02860091  RH  030%=      5-min Rain = 0
KVA1 120714Z 20009KT 29/09 A3009 RMK A01 T02860091  RH  030%=      5-min Rain = 0
KVA1 120715Z 20009KT 29/09 A3009 RMK A01 T02860092  RH  030%=      5-min Rain = 0
KVA1 120716Z 20008KT 29/09 A3009 RMK A01 T02850091  RH  030%=      5-min Rain = 0
KVA1 120717Z 21010KT 29/09 A3009 RMK A01 T02850091  RH  030%=      5-min Rain = 0
KVA1 120718Z 21010KT 29/09 A3009 RMK A01 T02850091  RH  030%=      5-min Rain = 0
KVA1 120719Z 21009KT 29/09 A3009 RMK A01 T02850091  RH  030%=      5-min Rain = 0
KVA1 120720Z 20009KT 29/09 A3009 RMK A01 T02850091  RH  030%=      5-min Rain = 0
KVA1 120721Z 20010KT 28/09 A3009 RMK A01 T02840091  RH  030%=      5-min Rain = 0
KVA1 120722Z 20013KT 28/09 A3009 RMK A01 T02840091  RH  030%=      5-min Rain = 0
KVA1 120723Z 20011KT 29/09 A3009 RMK A01 T02850091  RH  030%=      5-min Rain = 0
KVA1 120724Z 20010KT 29/09 A3009 RMK A01 T02860091  RH  030%=      5-min Rain = 0
KVA1 120725Z 19010KT 29/09 A3009 RMK A01 T02860091  RH  030%=      5-min Rain = 0
KVA1 120726Z 19011KT 29/09 A3009 RMK A01 T02860091  RH  030%=      5-min Rain = 0
KVA1 120727Z 19012KT 29/09 A3009 RMK A01 T02860091  RH  029%=      5-min Rain = 0
KVA1 120728Z 18011KT 29/09 A3009 RMK A01 T02860091  RH  029%=      5-min Rain = 0
KVA1 120729Z 19010KT 29/09 A3009 RMK A01 T02860090  RH  029%=      5-min Rain = 0
KVA1 120730Z 19011KT 29/09 A3009 RMK A01 T02860090  RH  029%=      5-min Rain = 0
KVA1 120731Z 19011KT 29/09 A3009 RMK A01 T02860090  RH  029%=      5-min Rain = 0
KVA1 120732Z 19009KT 29/09 A3009 RMK A01 T02860090  RH  029%=      5-min Rain = 0
KVA1 120733Z 19010KT 29/09 A3009 RMK A01 T02860090  RH  029%=      5-min Rain = 0
KVA1 120734Z 19010KT 29/09 A3008 RMK A01 T02860090  RH  029%=      5-min Rain = 0
KVA1 120735Z 20011KT 29/09 A3008 RMK A01 T02860090  RH  029%=      5-min Rain = 0
KVA1 120736Z 19010KT 29/09 A3008 RMK A01 T02860090  RH  029%=      5-min Rain = 0
KVA1 120737Z 20010KT 29/09 A3009 RMK A01 T02860090  RH  029%=      5-min Rain = 0
KVA1 120738Z 20010KT 29/09 A3009 RMK A01 T02850090  RH  029%=      5-min Rain = 0
KVA1 120739Z 20009KT 29/09 A3009 RMK A01 T02850090  RH  029%=      5-min Rain = 0
KVA1 120740Z 20009KT 29/09 A3009 RMK A01 T02850090  RH  029%=      5-min Rain = 0
KVA1 120741Z 21009KT 28/09 A3009 RMK A01 T02840090  RH  030%=      5-min Rain = 0
KVA1 120742Z 21009KT 28/09 A3009 RMK A01 T02840090  RH  030%=      5-min Rain = 0
KVA1 120743Z 21008KT 28/09 A3009 RMK A01 T02830089  RH  030%=      5-min Rain = 0
KVA1 120744Z 22008KT 28/09 A3009 RMK A01 T02830089  RH  030%=      5-min Rain = 0
KVA1 120745Z 22007KT 28/09 A3009 RMK A01 T02820089  RH  030%=      5-min Rain = 0
KVA1 120746Z 22007KT 28/09 A3009 RMK A01 T02820089  RH  030%=      5-min Rain = 0
KVA1 120747Z 22007KT 28/09 A3009 RMK A01 T02810089  RH  030%=      5-min Rain = 0
KVA1 120748Z 22008KT 28/09 A3009 RMK A01 T02800089  RH  030%=      5-min Rain = 0
KVA1 120749Z 22007KT 28/09 A3009 RMK A01 T02800089  RH  030%=      5-min Rain = 0
KVA1 120750Z 22007KT 28/09 A3009 RMK A01 T02800089  RH  030%=      5-min Rain = 0
KVA1 120751Z 22007KT 28/09 A3009 RMK A01 T02790089  RH  030%=      5-min Rain = 0
KVA1 120752Z 22006KT 28/09 A3009 RMK A01 T02780088  RH  030%=      5-min Rain = 0
KVA1 120753Z 22006KT 28/09 A3009 RMK A01 T02770088  RH  031%=      5-min Rain = 0
KVA1 120754Z 21007KT 28/09 A3008 RMK A01 T02750088  RH  031%=      5-min Rain = 0
KVA1 120755Z 21008KT 28/09 A3008 RMK A01 T02750088  RH  031%=      5-min Rain = 0
KVA1 120756Z 21007KT 28/09 A3008 RMK A01 T02750089  RH  031%=      5-min Rain = 0
KVA1 120757Z 20008KT 28/09 A3008 RMK A01 T02750088  RH  031%=      5-min Rain = 0
KVA1 120758Z 20009KT 28/09 A3008 RMK A01 T02760089  RH  031%=      5-min Rain = 0
KVA1 120759Z 20008KT 28/09 A3008 RMK A01 T02770089  RH  031%=      5-min Rain = 0
KVA1 120800Z 20007KT 28/09 A3008 RMK A01 T02770089  RH  031%=      5-min Rain = 0
KVA1 120801Z 19008KT 28/09 A3008 RMK A01 T02770088  RH  031%=      5-min Rain = 0
KVA1 120802Z 19008KT 28/09 A3008 RMK A01 T02770089  RH  031%=      5-min Rain = 0
KVA1 120803Z 19007KT 28/09 A3008 RMK A01 T02780089  RH  031%=      5-min Rain = 0
KVA1 120804Z 18008KT 28/09 A3008 RMK A01 T02770089  RH  031%=      5-min Rain = 0
KVA1 120805Z 18010KT 28/09 A3008 RMK A01 T02780089  RH  031%=      5-min Rain = 0
KVA1 120806Z 18009KT 28/09 A3008 RMK A01 T02780089  RH  030%=      5-min Rain = 0
KVA1 120807Z 18010KT 28/09 A3008 RMK A01 T02790089  RH  030%=      5-min Rain = 0
KVA1 120808Z 18011KT 28/09 A3008 RMK A01 T02790089  RH  030%=      5-min Rain = 0
KVA1 120809Z 18011KT 28/09 A3008 RMK A01 T02790089  RH  030%=      5-min Rain = 0
KVA1 120810Z 18012KT 28/09 A3008 RMK A01 T02800089  RH  030%=      5-min Rain = 0
KVA1 120811Z 18011KT 28/09 A3008 RMK A01 T02800089  RH  030%=      5-min Rain = 0
KVA1 120812Z 18011KT 28/09 A3008 RMK A01 T02800089  RH  030%=      5-min Rain = 0
KVA1 120813Z 18012KT 28/09 A3008 RMK A01 T02800089  RH  030%=      5-min Rain = 0
KVA1 120814Z 18012KT 28/09 A3008 RMK A01 T02800090  RH  030%=      5-min Rain = 0
KVA1 120815Z 19011KT 28/09 A3008 RMK A01 T02800089  RH  030%=      5-min Rain = 0
KVA1 120816Z 19012KT 28/09 A3008 RMK A01 T02800089  RH  030%=      5-min Rain = 0
KVA1 120817Z 19013KT 28/09 A3008 RMK A01 T02800089  RH  030%=      5-min Rain = 0
KVA1 120818Z 19012KT 28/09 A3008 RMK A01 T02800089  RH  030%=      5-min Rain = 0
KVA1 120819Z 19011KT 28/09 A3008 RMK A01 T02800089  RH  030%=      5-min Rain = 0
KVA1 120820Z 19013KT 28/09 A3008 RMK A01 T02800089  RH  030%=      5-min Rain = 0
KVA1 120821Z 19013KT 28/09 A3008 RMK A01 T02800089  RH  030%=      5-min Rain = 0
KVA1 120822Z 19012KT 28/09 A3008 RMK A01 T02800089  RH  030%=      5-min Rain = 0
KVA1 120823Z 19011KT 28/09 A3008 RMK A01 T02800089  RH  030%=      5-min Rain = 0
KVA1 120824Z 19012G17KT 28/09 A3008 RMK A01 T02800089  RH  030%=      5-min Rain = 0
KVA1 120825Z 19011KT 28/09 A3008 RMK A01 T02800089  RH  030%=      5-min Rain = 0
KVA1 120826Z 19011KT 28/09 A3008 RMK A01 T02800089  RH  030%=      5-min Rain = 0
KVA1 120827Z 19012KT 28/09 A3008 RMK A01 T02790089  RH  030%=      5-min Rain = 0
KVA1 120828Z 19012KT 28/09 A3008 RMK A01 T02790088  RH  030%=      5-min Rain = 0
KVA1 120829Z 19012KT 28/09 A3008 RMK A01 T02800088  RH  030%=      5-min Rain = 0
KVA1 120830Z 19012KT 28/09 A3008 RMK A01 T02800088  RH  030%=      5-min Rain = 0
KVA1 120831Z 19012KT 28/09 A3008 RMK A01 T02800088  RH  030%=      5-min Rain = 0
KVA1 120832Z 19011KT 28/09 A3008 RMK A01 T02800088  RH  030%=      5-min Rain = 0
KVA1 120833Z 19010KT 28/09 A3008 RMK A01 T02810088  RH  030%=      5-min Rain = 0
KVA1 120834Z 20010KT 28/09 A3008 RMK A01 T02810088  RH  030%=      5-min Rain = 0
KVA1 120835Z 19009KT 28/09 A3008 RMK A01 T02810088  RH  030%=      5-min Rain = 0
KVA1 120836Z 20009KT 28/09 A3008 RMK A01 T02810087  RH  030%=      5-min Rain = 0
KVA1 120837Z 20008KT 28/09 A3008 RMK A01 T02810087  RH  030%=      5-min Rain = 0
KVA1 120838Z 20006KT 28/09 A3008 RMK A01 T02810087  RH  030%=      5-min Rain = 0
KVA1 120839Z 20006KT 28/09 A3009 RMK A01 T02810087  RH  030%=      5-min Rain = 0
KVA1 120840Z 21006KT 28/09 A3009 RMK A01 T02800086  RH  030%=      5-min Rain = 0
KVA1 120841Z 21004KT 28/09 A3009 RMK A01 T02800087  RH  030%=      5-min Rain = 0
KVA1 120842Z 22004KT 28/09 A3009 RMK A01 T02790087  RH  030%=      5-min Rain = 0
KVA1 120843Z 23003KT 28/09 A3009 RMK A01 T02790086  RH  030%=      5-min Rain = 0
KVA1 120844Z 26002KT 28/09 A3009 RMK A01 T02790086  RH  030%=      5-min Rain = 0
KVA1 120845Z 30003KT 28/09 A3009 RMK A01 T02780086  RH  030%=      5-min Rain = 0
KVA1 120846Z 32003KT 28/09 A3009 RMK A01 T02760086  RH  030%=      5-min Rain = 0
KVA1 120847Z 32004KT 27/09 A3009 RMK A01 T02740086  RH  030%=      5-min Rain = 0
KVA1 120848Z 33004KT 27/09 A3009 RMK A01 T02720086  RH  031%=      5-min Rain = 0
KVA1 120849Z 33005KT 27/09 A3009 RMK A01 T02700086  RH  031%=      5-min Rain = 0
KVA1 120850Z 33005KT 27/09 A3009 RMK A01 T02680086  RH  032%=      5-min Rain = 0
KVA1 120851Z 33006KT 27/09 A3009 RMK A01 T02660086  RH  032%=      5-min Rain = 0
KVA1 120852Z 32006KT 27/09 A3009 RMK A01 T02650086  RH  032%=      5-min Rain = 0
KVA1 120853Z 31006KT 26/09 A3009 RMK A01 T02630086  RH  033%=      5-min Rain = 0
KVA1 120854Z 31005KT 26/09 A3009 RMK A01 T02630087  RH  033%=      5-min Rain = 0
KVA1 120855Z 31005KT 26/09 A3009 RMK A01 T02630087  RH  033%=      5-min Rain = 0
KVA1 120856Z 31005KT 26/09 A301 RMK A01 T02620087  RH  033%=      5-min Rain = 0
KVA1 120857Z 31004KT 26/09 A301 RMK A01 T02620087  RH  033%=      5-min Rain = 0
KVA1 120858Z 32004KT 26/09 A301 RMK A01 T02620087  RH  033%=      5-min Rain = 0
KVA1 120859Z 30004KT 26/09 A301 RMK A01 T02620087  RH  033%=      5-min Rain = 0
KVA1 120900Z 29004KT 26/09 A301 RMK A01 T02620087  RH  033%=      5-min Rain = 0
KVA1 120901Z 29002KT 26/09 A301 RMK A01 T02620087  RH  033%=      5-min Rain = 0
KVA1 120902Z 26002KT 26/09 A301 RMK A01 T02620086  RH  033%=      5-min Rain = 0
KVA1 120903Z 25002KT 26/09 A301 RMK A01 T02630087  RH  033%=      5-min Rain = 0
KVA1 120904Z 23003KT 26/09 A301 RMK A01 T02630086  RH  033%=      5-min Rain = 0
KVA1 120905Z 22003KT 26/09 A301 RMK A01 T02640087  RH  033%=      5-min Rain = 0
KVA1 120906Z 22003KT 27/09 A301 RMK A01 T02650087  RH  033%=      5-min Rain = 0
KVA1 120907Z 22003KT 27/09 A301 RMK A01 T02650087  RH  032%=      5-min Rain = 0
KVA1 120908Z 23003KT 27/09 A301 RMK A01 T02650087  RH  032%=      5-min Rain = 0
KVA1 120909Z 23004KT 27/09 A301 RMK A01 T02660087  RH  032%=      5-min Rain = 0
KVA1 120910Z 24003KT 27/09 A301 RMK A01 T02650087  RH  032%=      5-min Rain = 0
KVA1 120911Z 25003KT 26/09 A301 RMK A01 T02640086  RH  032%=      5-min Rain = 0
KVA1 120912Z 25003KT 26/09 A301 RMK A01 T02630086  RH  032%=      5-min Rain = 0
KVA1 120913Z 26003KT 26/09 A301 RMK A01 T02620086  RH  033%=      5-min Rain = 0
KVA1 120914Z 26003KT 26/09 A301 RMK A01 T02610086  RH  033%=      5-min Rain = 0
KVA1 120915Z 26003KT 26/09 A301 RMK A01 T02600086  RH  033%=      5-min Rain = 0
KVA1 120916Z 26002KT 26/09 A301 RMK A01 T02590086  RH  033%=      5-min Rain = 0
KVA1 120917Z 25004KT 26/09 A301 RMK A01 T02580086  RH  034%=      5-min Rain = 0
KVA1 120918Z 24004KT 26/09 A301 RMK A01 T02580087  RH  034%=      5-min Rain = 0
KVA1 120919Z 24003KT 26/09 A301 RMK A01 T02590086  RH  033%=      5-min Rain = 0
KVA1 120920Z 23004KT 26/09 A301 RMK A01 T02590086  RH  033%=      5-min Rain = 0
KVA1 120921Z 23004KT 26/09 A301 RMK A01 T02580086  RH  034%=      5-min Rain = 0
KVA1 120922Z 24004KT 26/09 A301 RMK A01 T02570086  RH  034%=      5-min Rain = 0
KVA1 120923Z 23004KT 26/09 A301 RMK A01 T02560086  RH  034%=      5-min Rain = 0
KVA1 120924Z 24004KT 26/09 A301 RMK A01 T02560086  RH  034%=      5-min Rain = 0
KVA1 120925Z 24003KT 26/09 A301 RMK A01 T02560086  RH  034%=      5-min Rain = 0
KVA1 120926Z 24003KT 26/09 A301 RMK A01 T02550085  RH  034%=      5-min Rain = 0
KVA1 120927Z 24003KT 25/09 A301 RMK A01 T02540085  RH  034%=      5-min Rain = 0
KVA1 120928Z 25003KT 25/09 A301 RMK A01 T02530085  RH  034%=      5-min Rain = 0
KVA1 120929Z 26003KT 25/09 A301 RMK A01 T02520085  RH  035%=      5-min Rain = 0
KVA1 120930Z 26003KT 25/08 A301 RMK A01 T02510084  RH  035%=      5-min Rain = 0
KVA1 120931Z 25004KT 25/08 A301 RMK A01 T02500084  RH  035%=      5-min Rain = 0
KVA1 120932Z 25004KT 25/09 A301 RMK A01 T02490085  RH  035%=      5-min Rain = 0
KVA1 120933Z 23003KT 25/08 A301 RMK A01 T02480084  RH  035%=      5-min Rain = 0
KVA1 120934Z 23004KT 25/08 A301 RMK A01 T02470084  RH  035%=      5-min Rain = 0
KVA1 120935Z 22004KT 25/08 A301 RMK A01 T02470084  RH  036%=      5-min Rain = 0
KVA1 120936Z 21004KT 25/09 A301 RMK A01 T02460085  RH  036%=      5-min Rain = 0
KVA1 120937Z 20005KT 25/09 A301 RMK A01 T02460085  RH  036%=      5-min Rain = 0
KVA1 120938Z 19006KT 25/08 A3009 RMK A01 T02460084  RH  036%=      5-min Rain = 0
KVA1 120939Z 19007KT 25/09 A3009 RMK A01 T02460085  RH  036%=      5-min Rain = 0
KVA1 120940Z 20007KT 25/09 A3009 RMK A01 T02470085  RH  036%=      5-min Rain = 0
KVA1 120941Z 20008KT 25/09 A3009 RMK A01 T02480085  RH  035%=      5-min Rain = 0
KVA1 120942Z 19007KT 25/09 A3009 RMK A01 T02500086  RH  035%=      5-min Rain = 0
KVA1 120943Z 19007KT 25/09 A3009 RMK A01 T02510086  RH  035%=      5-min Rain = 0
KVA1 120944Z 19008KT 25/09 A3009 RMK A01 T02520086  RH  035%=      5-min Rain = 0
KVA1 120945Z 19008KT 25/09 A3009 RMK A01 T02520086  RH  035%=      5-min Rain = 0
KVA1 120946Z 19008KT 25/09 A3009 RMK A01 T02530086  RH  035%=      5-min Rain = 0
KVA1 120947Z 19008KT 25/09 A3009 RMK A01 T02530086  RH  034%=      5-min Rain = 0
KVA1 120948Z 19007KT 25/09 A3009 RMK A01 T02530085  RH  034%=      5-min Rain = 0
KVA1 120949Z 19007KT 25/09 A3009 RMK A01 T02530085  RH  034%=      5-min Rain = 0
KVA1 120950Z 19008KT 25/09 A3009 RMK A01 T02530086  RH  034%=      5-min Rain = 0
KVA1 120951Z 18008KT 25/09 A3009 RMK A01 T02530085  RH  034%=      5-min Rain = 0
KVA1 120952Z 18008KT 25/09 A3009 RMK A01 T02530085  RH  034%=      5-min Rain = 0
KVA1 120953Z 18008KT 25/09 A3009 RMK A01 T02530085  RH  034%=      5-min Rain = 0
KVA1 120954Z 17007KT 25/09 A3009 RMK A01 T02540085  RH  034%=      5-min Rain = 0
KVA1 120955Z 17007KT 25/09 A3009 RMK A01 T02530085  RH  034%=      5-min Rain = 0
KVA1 120956Z 17006KT 25/09 A3009 RMK A01 T02530085  RH  034%=      5-min Rain = 0
KVA1 120957Z 18006KT 25/09 A3009 RMK A01 T02540085  RH  034%=      5-min Rain = 0
KVA1 120958Z 18005KT 25/09 A3009 RMK A01 T02540085  RH  034%=      5-min Rain = 0
KVA1 120959Z 19004KT 25/09 A3009 RMK A01 T02530085  RH  034%=      5-min Rain = 0
KVA1 121000Z 19004KT 25/09 A3009 RMK A01 T02540085  RH  034%=      5-min Rain = 0
KVA1 121001Z 20005KT 25/09 A3009 RMK A01 T02530085  RH  034%=      5-min Rain = 0
KVA1 121002Z 20004KT 25/08 A3009 RMK A01 T02530084  RH  034%=      5-min Rain = 0
KVA1 121003Z 21006KT 25/09 A3009 RMK A01 T02530085  RH  034%=      5-min Rain = 0
KVA1 121004Z 21006KT 25/09 A3009 RMK A01 T02530085  RH  034%=      5-min Rain = 0
KVA1 121005Z 22006KT 25/09 A3009 RMK A01 T02530085  RH  034%=      5-min Rain = 0
KVA1 121006Z 22006KT 25/09 A301 RMK A01 T02530085  RH  034%=      5-min Rain = 0
KVA1 121007Z 22006KT 25/09 A301 RMK A01 T02540085  RH  034%=      5-min Rain = 0
KVA1 121008Z 24005KT 25/09 A301 RMK A01 T02540085  RH  034%=      5-min Rain = 0
KVA1 121009Z 23005KT 25/08 A301 RMK A01 T02540084  RH  034%=      5-min Rain = 0
KVA1 121010Z 23005KT 25/08 A301 RMK A01 T02530084  RH  034%=      5-min Rain = 0
KVA1 121011Z 25005KT 25/09 A3009 RMK A01 T02530085  RH  034%=      5-min Rain = 0
KVA1 121012Z 25005KT 25/08 A3009 RMK A01 T02530084  RH  034%=      5-min Rain = 0
KVA1 121013Z 25006KT 25/09 A3009 RMK A01 T02530085  RH  034%=      5-min Rain = 0
KVA1 121014Z 25006KT 25/08 A3009 RMK A01 T02520084  RH  034%=      5-min Rain = 0
KVA1 121015Z 25006KT 25/08 A3009 RMK A01 T02520084  RH  035%=      5-min Rain = 0
KVA1 121016Z 27006KT 25/08 A3009 RMK A01 T02510084  RH  035%=      5-min Rain = 0
KVA1 121017Z 26006KT 25/08 A3009 RMK A01 T02490084  RH  035%=      5-min Rain = 0
KVA1 121018Z 27005KT 25/08 A3009 RMK A01 T02490084  RH  035%=      5-min Rain = 0
KVA1 121019Z 27006KT 25/08 A3009 RMK A01 T02480084  RH  035%=      5-min Rain = 0
KVA1 121020Z 27006KT 25/08 A3009 RMK A01 T02470084  RH  035%=      5-min Rain = 0
KVA1 121021Z 27006KT 25/08 A3009 RMK A01 T02460084  RH  035%=      5-min Rain = 0
KVA1 121022Z 27006KT 25/08 A3009 RMK A01 T02460084  RH  036%=      5-min Rain = 0
KVA1 121023Z 27004KT 25/08 A301 RMK A01 T02460084  RH  036%=      5-min Rain = 0
KVA1 121024Z 27005KT 25/08 A3009 RMK A01 T02460084  RH  036%=      5-min Rain = 0
KVA1 121025Z 27005KT 25/08 A301 RMK A01 T02450084  RH  036%=      5-min Rain = 0
KVA1 121026Z 26005KT 25/08 A301 RMK A01 T02450084  RH  036%=      5-min Rain = 0
KVA1 121027Z 26007KT 25/08 A301 RMK A01 T02450084  RH  036%=      5-min Rain = 0
KVA1 121028Z 26007KT 25/08 A301 RMK A01 T02460084  RH  036%=      5-min Rain = 0
KVA1 121029Z 26007KT 25/08 A301 RMK A01 T02460084  RH  036%=      5-min Rain = 0
KVA1 121030Z 26008KT 25/08 A301 RMK A01 T02470084  RH  035%=      5-min Rain = 0
KVA1 121031Z 26007KT 25/08 A301 RMK A01 T02480084  RH  035%=      5-min Rain = 0
KVA1 121032Z 26007KT 25/08 A3009 RMK A01 T02480084  RH  035%=      5-min Rain = 0
KVA1 121033Z 26008KT 25/08 A3009 RMK A01 T02490084  RH  035%=      5-min Rain = 0
KVA1 121034Z 25009KT 25/08 A301 RMK A01 T02490084  RH  035%=      5-min Rain = 0
KVA1 121035Z 25008KT 25/08 A301 RMK A01 T02490084  RH  035%=      5-min Rain = 0
KVA1 121036Z 25009KT 25/08 A301 RMK A01 T02490084  RH  035%=      5-min Rain = 0
KVA1 121037Z 23009KT 25/08 A301 RMK A01 T02490084  RH  035%=      5-min Rain = 0
KVA1 121038Z 24009KT 25/08 A301 RMK A01 T02490084  RH  035%=      5-min Rain = 0
KVA1 121039Z 23009KT 25/08 A301 RMK A01 T02500084  RH  035%=      5-min Rain = 0
KVA1 121040Z 24009KT 25/08 A301 RMK A01 T02490083  RH  035%=      5-min Rain = 0
KVA1 121041Z 24008KT 25/08 A301 RMK A01 T02490083  RH  035%=      5-min Rain = 0
KVA1 121042Z 24008KT 25/08 A301 RMK A01 T02490084  RH  035%=      5-min Rain = 0
KVA1 121043Z 24008KT 25/08 A301 RMK A01 T02490083  RH  035%=      5-min Rain = 0
KVA1 121044Z 24008KT 25/08 A301 RMK A01 T02490083  RH  035%=      5-min Rain = 0
KVA1 121045Z 24007KT 25/08 A301 RMK A01 T02480083  RH  035%=      5-min Rain = 0
KVA1 121046Z 24008KT 25/08 A301 RMK A01 T02480083  RH  035%=      5-min Rain = 0
KVA1 121047Z 24007KT 25/08 A301 RMK A01 T02480083  RH  035%=      5-min Rain = 0
KVA1 121048Z 24008KT 25/08 A3009 RMK A01 T02470082  RH  035%=      5-min Rain = 0
KVA1 121049Z 24007KT 25/08 A3009 RMK A01 T02470082  RH  035%=      5-min Rain = 0
KVA1 121050Z 24008KT 25/08 A3009 RMK A01 T02460082  RH  035%=      5-min Rain = 0
KVA1 121051Z 23008KT 25/08 A3009 RMK A01 T02450082  RH  035%=      5-min Rain = 0
KVA1 121052Z 24007KT 25/08 A3009 RMK A01 T02460082  RH  035%=      5-min Rain = 0
KVA1 121053Z 24007KT 25/08 A3009 RMK A01 T02460082  RH  035%=      5-min Rain = 0
KVA1 121054Z 24006KT 25/08 A3009 RMK A01 T02460082  RH  035%=      5-min Rain = 0
KVA1 121055Z 24007KT 25/08 A301 RMK A01 T02460082  RH  035%=      5-min Rain = 0
KVA1 121056Z 24007KT 25/08 A301 RMK A01 T02460082  RH  035%=      5-min Rain = 0
KVA1 121057Z 24007KT 25/08 A301 RMK A01 T02460082  RH  035%=      5-min Rain = 0
KVA1 121058Z 25007KT 25/08 A301 RMK A01 T02460082  RH  035%=      5-min Rain = 0
KVA1 121059Z 25007KT 25/08 A301 RMK A01 T02450081  RH  035%=      5-min Rain = 0
KVA1 121100Z 25006KT 25/08 A301 RMK A01 T02450081  RH  035%=      5-min Rain = 0
KVA1 121101Z 25006KT 24/08 A301 RMK A01 T02440081  RH  035%=      5-min Rain = 0
KVA1 121102Z 25005KT 24/08 A301 RMK A01 T02440081  RH  035%=      5-min Rain = 0
KVA1 121103Z 25006KT 24/08 A301 RMK A01 T02440081  RH  035%=      5-min Rain = 0
KVA1 121104Z 25006KT 24/08 A301 RMK A01 T02440081  RH  035%=      5-min Rain = 0
KVA1 121105Z 26007KT 24/08 A301 RMK A01 T02430081  RH  035%=      5-min Rain = 0
KVA1 121106Z 24007KT 24/08 A301 RMK A01 T02440081  RH  035%=      5-min Rain = 0
KVA1 121107Z 25008KT 24/08 A301 RMK A01 T02440081  RH  035%=      5-min Rain = 0
KVA1 121108Z 24007KT 25/08 A301 RMK A01 T02450081  RH  035%=      5-min Rain = 0
KVA1 121109Z 24007KT 25/08 A301 RMK A01 T02450081  RH  035%=      5-min Rain = 0
KVA1 121110Z 25006KT 25/08 A301 RMK A01 T02450081  RH  035%=      5-min Rain = 0
KVA1 121111Z 23007KT 25/08 A301 RMK A01 T02450081  RH  035%=      5-min Rain = 0
KVA1 121112Z 24007KT 25/08 A301 RMK A01 T02450081  RH  035%=      5-min Rain = 0
KVA1 121113Z 23009KT 25/08 A301 RMK A01 T02450081  RH  035%=      5-min Rain = 0
KVA1 121114Z 22008KT 25/08 A301 RMK A01 T02450081  RH  035%=      5-min Rain = 0
KVA1 121115Z 22008KT 25/08 A301 RMK A01 T02460081  RH  035%=      5-min Rain = 0
KVA1 121116Z 22008KT 25/08 A301 RMK A01 T02460081  RH  035%=      5-min Rain = 0
KVA1 121117Z 23009KT 25/08 A301 RMK A01 T02460081  RH  035%=      5-min Rain = 0
KVA1 121118Z 23009KT 25/08 A301 RMK A01 T02450081  RH  035%=      5-min Rain = 0
KVA1 121119Z 23009KT 25/08 A301 RMK A01 T02450081  RH  035%=      5-min Rain = 0
KVA1 121120Z 23008KT 24/08 A301 RMK A01 T02440080  RH  035%=      5-min Rain = 0
KVA1 121121Z 23008KT 24/08 A301 RMK A01 T02440081  RH  035%=      5-min Rain = 0
KVA1 121122Z 23007KT 24/08 A301 RMK A01 T02440081  RH  035%=      5-min Rain = 0
KVA1 121123Z 23006KT 24/08 A301 RMK A01 T02430080  RH  035%=      5-min Rain = 0
KVA1 121124Z 23007KT 24/08 A301 RMK A01 T02420081  RH  036%=      5-min Rain = 0
KVA1 121125Z 23006KT 24/08 A301 RMK A01 T02420081  RH  036%=      5-min Rain = 0
KVA1 121126Z 23007KT 24/08 A301 RMK A01 T02420081  RH  036%=      5-min Rain = 0
KVA1 121127Z 23007KT 24/08 A301 RMK A01 T02420081  RH  036%=      5-min Rain = 0
KVA1 121128Z 23006KT 24/08 A301 RMK A01 T02420081  RH  036%=      5-min Rain = 0
KVA1 121129Z 24007KT 24/08 A301 RMK A01 T02420081  RH  036%=      5-min Rain = 0
KVA1 121130Z 24008KT 24/08 A301 RMK A01 T02420081  RH  036%=      5-min Rain = 0
KVA1 121131Z 23007KT 24/08 A301 RMK A01 T02420081  RH  036%=      5-min Rain = 0
KVA1 121132Z 23007KT 24/08 A301 RMK A01 T02420081  RH  036%=      5-min Rain = 0
KVA1 121133Z 22008KT 24/08 A301 RMK A01 T02430081  RH  036%=      5-min Rain = 0
KVA1 121134Z 22008KT 24/08 A301 RMK A01 T02440081  RH  035%=      5-min Rain = 0
KVA1 121135Z 21007KT 25/08 A301 RMK A01 T02450081  RH  035%=      5-min Rain = 0
KVA1 121136Z 22007KT 25/08 A301 RMK A01 T02450081  RH  035%=      5-min Rain = 0
KVA1 121137Z 24006KT 25/08 A301 RMK A01 T02450081  RH  035%=      5-min Rain = 0
KVA1 121138Z 25006KT 24/08 A301 RMK A01 T02440080  RH  035%=      5-min Rain = 0
KVA1 121139Z 25006KT 24/08 A301 RMK A01 T02420080  RH  036%=      5-min Rain = 0
KVA1 121140Z 25006KT 24/08 A301 RMK A01 T02400080  RH  036%=      5-min Rain = 0
KVA1 121141Z 25006KT 24/08 A301 RMK A01 T02390080  RH  036%=      5-min Rain = 0
KVA1 121142Z 25006KT 24/08 A301 RMK A01 T02380080  RH  036%=      5-min Rain = 0
KVA1 121143Z 25006KT 24/08 A301 RMK A01 T02380080  RH  036%=      5-min Rain = 0
KVA1 121144Z 25006KT 24/08 A301 RMK A01 T02380080  RH  037%=      5-min Rain = 0
KVA1 121145Z 25006KT 24/08 A301 RMK A01 T02390081  RH  036%=      5-min Rain = 0
KVA1 121146Z 25006KT 24/08 A3011 RMK A01 T02390081  RH  036%=      5-min Rain = 0
KVA1 121147Z 25005KT 24/08 A3011 RMK A01 T02390081  RH  036%=      5-min Rain = 0
KVA1 121148Z 24005KT 24/08 A3011 RMK A01 T02390080  RH  036%=      5-min Rain = 0
KVA1 121149Z 24005KT 24/08 A3011 RMK A01 T02390081  RH  036%=      5-min Rain = 0
KVA1 121150Z 25004KT 24/08 A3011 RMK A01 T02390081  RH  036%=      5-min Rain = 0
KVA1 121151Z 25005KT 24/08 A3011 RMK A01 T02390081  RH  036%=      5-min Rain = 0
KVA1 121152Z 25006KT 24/08 A3011 RMK A01 T02390081  RH  036%=      5-min Rain = 0
KVA1 121153Z 25005KT 24/08 A3011 RMK A01 T02390081  RH  036%=      5-min Rain = 0
KVA1 121154Z 25006KT 24/08 A3011 RMK A01 T02390081  RH  036%=      5-min Rain = 0
KVA1 121155Z 25006KT 24/08 A3011 RMK A01 T02380081  RH  036%=      5-min Rain = 0
KVA1 121156Z 25006KT 24/08 A3011 RMK A01 T02380080  RH  036%=      5-min Rain = 0
KVA1 121157Z 25006KT 24/08 A3011 RMK A01 T02380081  RH  036%=      5-min Rain = 0
KVA1 121158Z 25006KT 24/08 A3011 RMK A01 T02380081  RH  036%=      5-min Rain = 0
KVA1 121159Z 25007KT 24/08 A3011 RMK A01 T02380080  RH  037%=      5-min Rain = 0
KVA1 121200Z 24005KT 24/08 A3011 RMK A01 T02370080  RH  037%=      5-min Rain = 0
KVA1 121201Z 24006KT 24/08 A3011 RMK A01 T02380081  RH  037%=      5-min Rain = 0
KVA1 121202Z 24006KT 24/08 A3011 RMK A01 T02380080  RH  037%=      5-min Rain = 0
KVA1 121203Z 23006KT 24/08 A3011 RMK A01 T02380081  RH  037%=      5-min Rain = 0
KVA1 121204Z 23006KT 24/08 A3011 RMK A01 T02370080  RH  037%=      5-min Rain = 0
KVA1 121205Z 22007KT 24/08 A3011 RMK A01 T02370081  RH  037%=      5-min Rain = 0
KVA1 121206Z 22007KT 24/08 A3011 RMK A01 T02370081  RH  037%=      5-min Rain = 0
KVA1 121207Z 22007KT 24/08 A3011 RMK A01 T02380081  RH  037%=      5-min Rain = 0
KVA1 121208Z 22007KT 24/08 A3011 RMK A01 T02390081  RH  036%=      5-min Rain = 0
KVA1 121209Z 22007KT 24/08 A3011 RMK A01 T02400081  RH  036%=      5-min Rain = 0
KVA1 121210Z 22006KT 24/08 A3011 RMK A01 T02390081  RH  036%=      5-min Rain = 0
KVA1 121211Z 22006KT 24/08 A3011 RMK A01 T02390081  RH  036%=      5-min Rain = 0
KVA1 121212Z 22006KT 24/08 A3011 RMK A01 T02380081  RH  037%=      5-min Rain = 0
KVA1 121213Z 22007KT 24/08 A3011 RMK A01 T02380081  RH  037%=      5-min Rain = 0
KVA1 121214Z 22006KT 24/08 A3011 RMK A01 T02370081  RH  037%=      5-min Rain = 0
KVA1 121215Z 23006KT 24/08 A3011 RMK A01 T02370080  RH  037%=      5-min Rain = 0
KVA1 121216Z 23007KT 24/08 A3011 RMK A01 T02360080  RH  037%=      5-min Rain = 0
KVA1 121217Z 23006KT 24/08 A3011 RMK A01 T02360080  RH  037%=      5-min Rain = 0
KVA1 121218Z 23006KT 24/08 A3011 RMK A01 T02350080  RH  037%=      5-min Rain = 0
KVA1 121219Z 23007KT 24/08 A3011 RMK A01 T02350080  RH  037%=      5-min Rain = 0
KVA1 121220Z 24006KT 24/08 A3011 RMK A01 T02350080  RH  037%=      5-min Rain = 0
KVA1 121221Z 24006KT 24/08 A3011 RMK A01 T02350080  RH  037%=      5-min Rain = 0
KVA1 121222Z 23006KT 24/08 A3011 RMK A01 T02350080  RH  037%=      5-min Rain = 0
KVA1 121223Z 23006KT 24/08 A3011 RMK A01 T02360080  RH  037%=      5-min Rain = 0
KVA1 121224Z 24005KT 24/08 A3011 RMK A01 T02370080  RH  037%=      5-min Rain = 0
KVA1 121225Z 24005KT 24/08 A3011 RMK A01 T02370080  RH  036%=      5-min Rain = 0
KVA1 121226Z 23005KT 24/08 A3011 RMK A01 T02380080  RH  036%=      5-min Rain = 0
KVA1 121227Z 24005KT 24/08 A3011 RMK A01 T02380080  RH  036%=      5-min Rain = 0
KVA1 121228Z 24005KT 24/08 A3011 RMK A01 T02380080  RH  036%=      5-min Rain = 0
KVA1 121229Z 24005KT 24/08 A3011 RMK A01 T02380080  RH  036%=      5-min Rain = 0
KVA1 121230Z 23005KT 24/08 A3011 RMK A01 T02380080  RH  036%=      5-min Rain = 0
KVA1 121231Z 23005KT 24/08 A3011 RMK A01 T02390080  RH  036%=      5-min Rain = 0
KVA1 121232Z 23005KT 24/08 A3011 RMK A01 T02400080  RH  036%=      5-min Rain = 0
KVA1 121233Z 22006KT 24/08 A3011 RMK A01 T02400080  RH  036%=      5-min Rain = 0
KVA1 121234Z 22006KT 24/08 A3011 RMK A01 T02410080  RH  036%=      5-min Rain = 0
KVA1 121235Z 22006KT 24/08 A3011 RMK A01 T02410080  RH  036%=      5-min Rain = 0
KVA1 121236Z 21005KT 24/08 A3011 RMK A01 T02420081  RH  036%=      5-min Rain = 0
KVA1 121237Z 21005KT 24/08 A3011 RMK A01 T02420081  RH  036%=      5-min Rain = 0
KVA1 121238Z 21005KT 24/08 A3012 RMK A01 T02430081  RH  036%=      5-min Rain = 0
KVA1 121239Z 20004KT 24/08 A3012 RMK A01 T02430081  RH  036%=      5-min Rain = 0
KVA1 121240Z 20004KT 24/08 A3012 RMK A01 T02430082  RH  036%=      5-min Rain = 0
KVA1 121241Z 20003KT 24/08 A3012 RMK A01 T02430082  RH  036%=      5-min Rain = 0
KVA1 121242Z 20003KT 24/08 A3012 RMK A01 T02430082  RH  036%=      5-min Rain = 0
KVA1 121243Z 19003KT 24/08 A3012 RMK A01 T02430082  RH  036%=      5-min Rain = 0
KVA1 121244Z 19003KT 24/08 A3012 RMK A01 T02440081  RH  035%=      5-min Rain = 0
KVA1 121245Z 18003KT 24/08 A3013 RMK A01 T02440082  RH  036%=      5-min Rain = 0
KVA1 121246Z 18003KT 24/08 A3013 RMK A01 T02440082  RH  035%=      5-min Rain = 0
KVA1 121247Z 17003KT 25/08 A3013 RMK A01 T02450082  RH  035%=      5-min Rain = 0
KVA1 121248Z 18002KT 25/08 A3013 RMK A01 T02450082  RH  035%=      5-min Rain = 0
KVA1 121249Z 18002KT 25/08 A3013 RMK A01 T02460082  RH  035%=      5-min Rain = 0
KVA1 121250Z 18002KT 25/08 A3013 RMK A01 T02460082  RH  035%=      5-min Rain = 0
KVA1 121251Z 19002KT 25/08 A3013 RMK A01 T02460082  RH  035%=      5-min Rain = 0
KVA1 121252Z 19002KT 25/08 A3013 RMK A01 T02470083  RH  035%=      5-min Rain = 0
KVA1 121253Z 20002KT 25/08 A3013 RMK A01 T02470084  RH  035%=      5-min Rain = 0
KVA1 121254Z 21003KT 25/08 A3013 RMK A01 T02470083  RH  035%=      5-min Rain = 0
KVA1 121255Z 22003KT 25/08 A3013 RMK A01 T02470082  RH  035%=      5-min Rain = 0
KVA1 121256Z 20003KT 25/08 A3013 RMK A01 T02470082  RH  035%=      5-min Rain = 0
KVA1 121257Z 19003KT 25/08 A3013 RMK A01 T02480084  RH  035%=      5-min Rain = 0
KVA1 121258Z 18003KT 25/08 A3013 RMK A01 T02480084  RH  035%=      5-min Rain = 0
KVA1 121259Z 18003KT 25/08 A3013 RMK A01 T02480083  RH  035%=      5-min Rain = 0
KVA1 121300Z 19002KT 25/08 A3013 RMK A01 T02480083  RH  035%=      5-min Rain = 0
KVA1 121301Z 18002KT 25/08 A3013 RMK A01 T02480083  RH  035%=      5-min Rain = 0
KVA1 121302Z 19003KT 25/08 A3013 RMK A01 T02480083  RH  035%=      5-min Rain = 0
KVA1 121303Z 19002KT 25/08 A3013 RMK A01 T02480082  RH  035%=      5-min Rain = 0
KVA1 121304Z 18002KT 25/08 A3013 RMK A01 T02490083  RH  035%=      5-min Rain = 0
KVA1 121305Z 19002KT 25/08 A3014 RMK A01 T02490084  RH  035%=      5-min Rain = 0
KVA1 121306Z 19002KT 25/08 A3014 RMK A01 T02500082  RH  034%=      5-min Rain = 0
KVA1 121307Z 18002KT 25/08 A3014 RMK A01 T02500084  RH  035%=      5-min Rain = 0
KVA1 121308Z 17002KT 25/08 A3014 RMK A01 T02500084  RH  035%=      5-min Rain = 0
KVA1 121309Z 15002KT 25/08 A3014 RMK A01 T02500082  RH  034%=      5-min Rain = 0
KVA1 121310Z 14002KT 25/08 A3014 RMK A01 T02510083  RH  034%=      5-min Rain = 0
KVA1 121311Z 13003KT 25/08 A3014 RMK A01 T02520083  RH  034%=      5-min Rain = 0
KVA1 121312Z 12003KT 25/08 A3014 RMK A01 T02520084  RH  034%=      5-min Rain = 0
KVA1 121313Z 13003KT 25/08 A3014 RMK A01 T02500084  RH  035%=      5-min Rain = 0
KVA1 121314Z 13004KT 25/08 A3014 RMK A01 T02500084  RH  035%=      5-min Rain = 0
KVA1 121315Z 13003KT 25/08 A3014 RMK A01 T02490084  RH  035%=      5-min Rain = 0
KVA1 121316Z 13003KT 25/08 A3013 RMK A01 T02480083  RH  035%=      5-min Rain = 0
KVA1 121317Z 13003KT 25/08 A3013 RMK A01 T02480084  RH  035%=      5-min Rain = 0
KVA1 121318Z 12002KT 25/08 A3013 RMK A01 T02480083  RH  035%=      5-min Rain = 0
KVA1 121319Z 12002KT 25/08 A3014 RMK A01 T02480084  RH  035%=      5-min Rain = 0
KVA1 121320Z 14002KT 25/08 A3014 RMK A01 T02490084  RH  035%=      5-min Rain = 0
KVA1 121321Z 16002KT 25/08 A3014 RMK A01 T02500084  RH  035%=      5-min Rain = 0
KVA1 121322Z 15002KT 25/08 A3014 RMK A01 T02510083  RH  034%=      5-min Rain = 0
KVA1 121323Z 13003KT 25/08 A3014 RMK A01 T02510084  RH  034%=      5-min Rain = 0
KVA1 121324Z 13003KT 25/08 A3014 RMK A01 T02510084  RH  034%=      5-min Rain = 0
KVA1 121325Z 13002KT 25/09 A3014 RMK A01 T02520085  RH  034%=      5-min Rain = 0
KVA1 121326Z 13002KT 25/09 A3014 RMK A01 T02530085  RH  034%=      5-min Rain = 0
KVA1 121327Z 14003KT 25/09 A3014 RMK A01 T02540086  RH  034%=      5-min Rain = 0
KVA1 121328Z 14003KT 26/09 A3014 RMK A01 T02550085  RH  034%=      5-min Rain = 0
KVA1 121329Z 15003KT 26/08 A3014 RMK A01 T02560084  RH  034%=      5-min Rain = 0
KVA1 121330Z 14002KT 26/08 A3014 RMK A01 T02560084  RH  034%=      5-min Rain = 0
KVA1 121331Z 15001KT 26/08 A3014 RMK A01 T02560084  RH  034%=      5-min Rain = 0
KVA1 121332Z 19002KT 26/08 A3014 RMK A01 T02560084  RH  034%=      5-min Rain = 0
KVA1 121333Z 20002KT 26/08 A3014 RMK A01 T02560084  RH  033%=      5-min Rain = 0
KVA1 121334Z 23002KT 26/08 A3014 RMK A01 T02560084  RH  033%=      5-min Rain = 0
KVA1 121335Z 24002KT 26/08 A3014 RMK A01 T02560083  RH  033%=      5-min Rain = 0
KVA1 121336Z 25002KT 26/08 A3014 RMK A01 T02560082  RH  033%=      5-min Rain = 0
KVA1 121337Z 23002KT 26/08 A3014 RMK A01 T02560082  RH  033%=      5-min Rain = 0
KVA1 121338Z 25002KT 26/08 A3014 RMK A01 T02580084  RH  033%=      5-min Rain = 0
KVA1 121339Z 24003KT 26/08 A3014 RMK A01 T02590084  RH  033%=      5-min Rain = 0
KVA1 121340Z 23002KT 26/08 A3014 RMK A01 T02590084  RH  033%=      5-min Rain = 0
KVA1 121341Z 22002KT 26/08 A3014 RMK A01 T02600084  RH  033%=      5-min Rain = 0
KVA1 121342Z 22003KT 26/09 A3014 RMK A01 T02610085  RH  033%=      5-min Rain = 0
KVA1 121343Z 23002KT 26/09 A3014 RMK A01 T02620086  RH  033%=      5-min Rain = 0
KVA1 121344Z 22002KT 26/09 A3014 RMK A01 T02640086  RH  032%=      5-min Rain = 0
KVA1 121345Z 21002KT 26/09 A3015 RMK A01 T02640086  RH  032%=      5-min Rain = 0
KVA1 121346Z 23002KT 27/09 A3014 RMK A01 T02660086  RH  032%=      5-min Rain = 0
KVA1 121347Z 22002KT 27/09 A3014 RMK A01 T02660085  RH  032%=      5-min Rain = 0
KVA1 121348Z 23002KT 27/09 A3014 RMK A01 T02670085  RH  032%=      5-min Rain = 0
KVA1 121349Z 23002KT 27/09 A3014 RMK A01 T02680085  RH  032%=      5-min Rain = 0
KVA1 121350Z 22002KT 27/09 A3014 RMK A01 T02680085  RH  031%=      5-min Rain = 0
KVA1 121351Z 25002KT 27/09 A3014 RMK A01 T02690086  RH  031%=      5-min Rain = 0
KVA1 121352Z 26002KT 27/09 A3015 RMK A01 T02710086  RH  031%=      5-min Rain = 0
KVA1 121353Z 25002KT 27/09 A3015 RMK A01 T02720085  RH  031%=      5-min Rain = 0
KVA1 121354Z 24002KT 27/08 A3015 RMK A01 T02720084  RH  031%=      5-min Rain = 0
KVA1 121355Z 25001KT 27/09 A3015 RMK A01 T02730085  RH  031%=      5-min Rain = 0
KVA1 121356Z 27001KT 27/09 A3015 RMK A01 T02740085  RH  030%=      5-min Rain = 0
KVA1 121357Z 29001KT 28/09 A3015 RMK A01 T02760085  RH  030%=      5-min Rain = 0
KVA1 121358Z 33002KT 28/09 A3015 RMK A01 T02770086  RH  030%=      5-min Rain = 0
KVA1 121359Z 33002KT 28/09 A3015 RMK A01 T02770085  RH  030%=      5-min Rain = 0
KVA1 121400Z 33001KT 28/09 A3015 RMK A01 T02780085  RH  030%=      5-min Rain = 0
KVA1 121401Z 32001KT 28/09 A3015 RMK A01 T02780085  RH  030%=      5-min Rain = 0
KVA1 121402Z 31001KT 28/09 A3015 RMK A01 T02790085  RH  029%=      5-min Rain = 0
KVA1 121403Z 31000KT 28/09 A3015 RMK A01 T02800085  RH  029%=      5-min Rain = 0
KVA1 121404Z 34001KT 28/09 A3015 RMK A01 T02810085  RH  029%=      5-min Rain = 0
KVA1 121405Z 34000KT 28/09 A3015 RMK A01 T02840087  RH  029%=      5-min Rain = 0
KVA1 121406Z 34001KT 29/09 A3015 RMK A01 T02850085  RH  029%=      5-min Rain = 0
KVA1 121407Z 35000KT 29/09 A3015 RMK A01 T02850085  RH  029%=      5-min Rain = 0
KVA1 121408Z 00000KT 29/09 A3015 RMK A01 T02860086  RH  028%=      5-min Rain = 0
KVA1 121409Z 24001KT 29/09 A3015 RMK A01 T02870086  RH  028%=      5-min Rain = 0
KVA1 121410Z 23001KT 29/09 A3015 RMK A01 T02890086  RH  028%=      5-min Rain = 0
KVA1 121411Z 19002KT 29/09 A3015 RMK A01 T02890085  RH  028%=      5-min Rain = 0
KVA1 121412Z 23001KT 29/08 A3015 RMK A01 T02870084  RH  028%=      5-min Rain = 0
KVA1 121413Z 27001KT 29/08 A3015 RMK A01 T02860084  RH  028%=      5-min Rain = 0
KVA1 121414Z 27001KT 29/08 A3015 RMK A01 T02850084  RH  028%=      5-min Rain = 0
KVA1 121415Z 28001KT 29/09 A3015 RMK A01 T02850085  RH  028%=      5-min Rain = 0
KVA1 121416Z 00000KT 29/09 A3015 RMK A01 T02850085  RH  028%=      5-min Rain = 0
KVA1 121417Z 25000KT 29/09 A3015 RMK A01 T02860085  RH  028%=      5-min Rain = 0
KVA1 121418Z 24002KT 29/09 A3015 RMK A01 T02880086  RH  028%=      5-min Rain = 0
KVA1 121419Z 25002KT 29/09 A3015 RMK A01 T02890085  RH  028%=      5-min Rain = 0
KVA1 121420Z 26000KT 29/09 A3015 RMK A01 T02880085  RH  028%=      5-min Rain = 0
KVA1 121421Z 23000KT 29/09 A3016 RMK A01 T02870085  RH  028%=      5-min Rain = 0
KVA1 121422Z 18000KT 29/09 A3016 RMK A01 T02890086  RH  028%=      5-min Rain = 0
KVA1 121423Z 21003KT 29/09 A3016 RMK A01 T02910087  RH  028%=      5-min Rain = 0
KVA1 121424Z 22004KT 29/09 A3016 RMK A01 T02920086  RH  028%=      5-min Rain = 0
KVA1 121425Z 22005KT 29/09 A3016 RMK A01 T02920085  RH  027%=      5-min Rain = 0
KVA1 121426Z 21003KT 29/09 A3016 RMK A01 T02900085  RH  028%=      5-min Rain = 0
KVA1 121427Z 20003KT 29/09 A3016 RMK A01 T02900085  RH  028%=      5-min Rain = 0
KVA1 121428Z 18004KT 29/09 A3016 RMK A01 T02900086  RH  028%=      5-min Rain = 0
KVA1 121429Z 20004KT 29/09 A3016 RMK A01 T02890086  RH  028%=      5-min Rain = 0
KVA1 121430Z 17003KT 29/09 A3016 RMK A01 T02890085  RH  028%=      5-min Rain = 0
KVA1 121431Z 21003KT 29/09 A3016 RMK A01 T02900085  RH  028%=      5-min Rain = 0
KVA1 121432Z 22004KT 29/09 A3016 RMK A01 T02910085  RH  028%=      5-min Rain = 0
KVA1 121433Z 20004KT 29/09 A3016 RMK A01 T02940086  RH  027%=      5-min Rain = 0
KVA1 121434Z 20004KT 29/09 A3016 RMK A01 T02940085  RH  027%=      5-min Rain = 0
KVA1 121435Z 21004KT 29/09 A3016 RMK A01 T02940086  RH  027%=      5-min Rain = 0
KVA1 121436Z 19003KT 29/09 A3016 RMK A01 T02940086  RH  027%=      5-min Rain = 0
KVA1 121437Z 20004KT 30/09 A3016 RMK A01 T02950085  RH  027%=      5-min Rain = 0
KVA1 121438Z 20006KT 30/09 A3016 RMK A01 T02960087  RH  027%=      5-min Rain = 0
KVA1 121439Z 20006KT 30/09 A3016 RMK A01 T02960086  RH  027%=      5-min Rain = 0
KVA1 121440Z 21006KT 30/08 A3016 RMK A01 T02970084  RH  027%=      5-min Rain = 0
KVA1 121441Z 20006KT 30/09 A3016 RMK A01 T02960085  RH  027%=      5-min Rain = 0
KVA1 121442Z 20008KT 30/09 A3016 RMK A01 T02970086  RH  027%=      5-min Rain = 0
KVA1 121443Z 19007KT 30/09 A3016 RMK A01 T02980085  RH  026%=      5-min Rain = 0
KVA1 121444Z 21006KT 30/09 A3016 RMK A01 T02970086  RH  027%=      5-min Rain = 0
KVA1 121445Z 21006KT 30/09 A3016 RMK A01 T02980086  RH  027%=      5-min Rain = 0
KVA1 121446Z 20006KT 30/09 A3016 RMK A01 T02970086  RH  027%=      5-min Rain = 0
KVA1 121447Z 21007KT 30/09 A3016 RMK A01 T02980086  RH  027%=      5-min Rain = 0
KVA1 121448Z 19006KT 30/09 A3016 RMK A01 T02990086  RH  026%=      5-min Rain = 0
KVA1 121449Z 20005KT 30/09 A3016 RMK A01 T03000086  RH  026%=      5-min Rain = 0
KVA1 121450Z 20006KT 30/09 A3016 RMK A01 T03000086  RH  026%=      5-min Rain = 0
KVA1 121451Z 18006KT 30/09 A3016 RMK A01 T03010087  RH  026%=      5-min Rain = 0
KVA1 121452Z 18007KT 30/09 A3016 RMK A01 T03030087  RH  026%=      5-min Rain = 0
KVA1 121453Z 19008KT 30/09 A3016 RMK A01 T03030087  RH  026%=      5-min Rain = 0
KVA1 121454Z 19008KT 30/09 A3015 RMK A01 T03040087  RH  026%=      5-min Rain = 0
KVA1 121455Z 19008KT 30/09 A3015 RMK A01 T03040087  RH  026%=      5-min Rain = 0
KVA1 121456Z 19006KT 31/09 A3016 RMK A01 T03050087  RH  026%=      5-min Rain = 0
KVA1 121457Z 19007KT 31/09 A3016 RMK A01 T03050088  RH  026%=      5-min Rain = 0
KVA1 121458Z 18008KT 31/09 A3015 RMK A01 T03060087  RH  026%=      5-min Rain = 0
KVA1 121459Z 20006KT 31/09 A3015 RMK A01 T03060087  RH  025%=      5-min Rain = 0
KVA1 121500Z 19008KT 31/09 A3015 RMK A01 T03070088  RH  026%=      5-min Rain = 0
KVA1 121501Z 18008KT 31/09 A3015 RMK A01 T03080088  RH  025%=      5-min Rain = 0
KVA1 121502Z 19009KT 31/09 A3015 RMK A01 T03080088  RH  025%=      5-min Rain = 0
KVA1 121503Z 18008KT 31/09 A3015 RMK A01 T03080087  RH  025%=      5-min Rain = 0
KVA1 121504Z 17009KT 31/09 A3015 RMK A01 T03090087  RH  025%=      5-min Rain = 0
KVA1 121505Z 18008KT 31/09 A3015 RMK A01 T03090088  RH  025%=      5-min Rain = 0
KVA1 121506Z 19006KT 31/09 A3015 RMK A01 T03090088  RH  025%=      5-min Rain = 0
KVA1 121507Z 19009KT 31/09 A3015 RMK A01 T03100088  RH  025%=      5-min Rain = 0
KVA1 121508Z 19009KT 31/09 A3015 RMK A01 T03100088  RH  025%=      5-min Rain = 0
KVA1 121509Z 20008KT 31/09 A3015 RMK A01 T03090088  RH  025%=      5-min Rain = 0
KVA1 121510Z 20007KT 31/09 A3015 RMK A01 T03090089  RH  025%=      5-min Rain = 0
KVA1 121511Z 19007KT 31/09 A3015 RMK A01 T03110089  RH  025%=      5-min Rain = 0
KVA1 121512Z 20007KT 31/09 A3015 RMK A01 T03130090  RH  025%=      5-min Rain = 0
KVA1 121513Z 20007KT 32/09 A3015 RMK A01 T03150091  RH  025%=      5-min Rain = 0
KVA1 121514Z 20008KT 32/09 A3015 RMK A01 T03170090  RH  025%=      5-min Rain = 0
KVA1 121515Z 20007KT 32/09 A3015 RMK A01 T03160090  RH  025%=      5-min Rain = 0
KVA1 121516Z 17008KT 32/09 A3015 RMK A01 T03170090  RH  024%=      5-min Rain = 0
KVA1 121517Z 20008KT 32/09 A3015 RMK A01 T03190091  RH  024%=      5-min Rain = 0
KVA1 121518Z 21009KT 32/09 A3015 RMK A01 T03190091  RH  024%=      5-min Rain = 0
KVA1 121519Z 20007KT 32/09 A3015 RMK A01 T03200090  RH  024%=      5-min Rain = 0
KVA1 121520Z 20008KT 32/09 A3015 RMK A01 T03190091  RH  024%=      5-min Rain = 0
KVA1 121521Z 19008KT 32/09 A3015 RMK A01 T03200091  RH  024%=      5-min Rain = 0
KVA1 121522Z 18009KT 32/09 A3014 RMK A01 T03180090  RH  024%=      5-min Rain = 0
KVA1 121523Z 18009KT 32/09 A3014 RMK A01 T03170090  RH  024%=      5-min Rain = 0
KVA1 121524Z 18008KT 32/09 A3014 RMK A01 T03170090  RH  025%=      5-min Rain = 0
KVA1 121525Z 18008KT 32/09 A3014 RMK A01 T03180091  RH  025%=      5-min Rain = 0
KVA1 121526Z 20008KT 32/09 A3014 RMK A01 T03210092  RH  024%=      5-min Rain = 0
KVA1 121527Z 20006KT 32/09 A3014 RMK A01 T03230093  RH  024%=      5-min Rain = 0
KVA1 121528Z 19007KT 32/09 A3014 RMK A01 T03230092  RH  024%=      5-min Rain = 0
KVA1 121529Z 19008KT 32/09 A3015 RMK A01 T03230092  RH  024%=      5-min Rain = 0
KVA1 121530Z 19008KT 32/09 A3015 RMK A01 T03230093  RH  024%=      5-min Rain = 0
KVA1 121531Z 19008KT 32/09 A3015 RMK A01 T03220092  RH  024%=      5-min Rain = 0
KVA1 121532Z 18006KT 32/09 A3015 RMK A01 T03220092  RH  024%=      5-min Rain = 0
KVA1 121533Z 18006KT 32/09 A3015 RMK A01 T03210092  RH  024%=      5-min Rain = 0
KVA1 121534Z 21008KT 32/09 A3015 RMK A01 T03230094  RH  024%=      5-min Rain = 0
KVA1 121535Z 20007KT 32/09 A3015 RMK A01 T03230091  RH  024%=      5-min Rain = 0
KVA1 121536Z 20006KT 32/09 A3015 RMK A01 T03230092  RH  024%=      5-min Rain = 0
KVA1 121537Z 20005KT 32/09 A3015 RMK A01 T03240093  RH  024%=      5-min Rain = 0
KVA1 121538Z 19006KT 33/10 A3015 RMK A01 T03270095  RH  024%=      5-min Rain = 0
KVA1 121539Z 18007KT 33/09 A3015 RMK A01 T03280093  RH  024%=      5-min Rain = 0
KVA1 121540Z 18005KT 33/09 A3015 RMK A01 T03270093  RH  024%=      5-min Rain = 0
KVA1 121541Z 19005KT 33/09 A3015 RMK A01 T03270093  RH  024%=      5-min Rain = 0
KVA1 121542Z 18003KT 33/09 A3015 RMK A01 T03280093  RH  024%=      5-min Rain = 0
KVA1 121543Z 19004KT 33/10 A3014 RMK A01 T03280095  RH  024%=      5-min Rain = 0
KVA1 121544Z 20005KT 33/09 A3014 RMK A01 T03300094  RH  023%=      5-min Rain = 0
KVA1 121545Z 21005KT 33/09 A3014 RMK A01 T03320094  RH  023%=      5-min Rain = 0
KVA1 121546Z 19006KT 33/09 A3014 RMK A01 T03320093  RH  023%=      5-min Rain = 0
KVA1 121547Z 19006KT 33/09 A3014 RMK A01 T03300094  RH  023%=      5-min Rain = 0
KVA1 121548Z 19004KT 33/09 A3014 RMK A01 T03290093  RH  023%=      5-min Rain = 0
KVA1 121549Z 20005KT 33/09 A3014 RMK A01 T03280094  RH  024%=      5-min Rain = 0
KVA1 121550Z 17003KT 33/09 A3014 RMK A01 T03290093  RH  024%=      5-min Rain = 0
KVA1 121551Z 17004KT 33/09 A3014 RMK A01 T03290092  RH  023%=      5-min Rain = 0
KVA1 121552Z 19007KT 33/09 A3014 RMK A01 T03290094  RH  024%=      5-min Rain = 0
KVA1 121553Z 19006KT 33/09 A3014 RMK A01 T03280093  RH  024%=      5-min Rain = 0
KVA1 121554Z 21006KT 33/09 A3014 RMK A01 T03280094  RH  024%=      5-min Rain = 0
KVA1 121555Z 21005KT 33/09 A3014 RMK A01 T03290092  RH  023%=      5-min Rain = 0
KVA1 121556Z 18006KT 33/09 A3014 RMK A01 T03300093  RH  023%=      5-min Rain = 0
KVA1 121557Z 18006KT 33/09 A3014 RMK A01 T03310093  RH  023%=      5-min Rain = 0
KVA1 121558Z 18005KT 33/09 A3014 RMK A01 T03300093  RH  023%=      5-min Rain = 0
KVA1 121559Z 19006KT 33/09 A3014 RMK A01 T03300093  RH  023%=      5-min Rain = 0
KVA1 121600Z 18005KT 33/09 A3014 RMK A01 T03300093  RH  023%=      5-min Rain = 0
KVA1 121601Z 17006KT 33/10 A3014 RMK A01 T03310095  RH  023%=      5-min Rain = 0
KVA1 121602Z 19008KT 33/09 A3014 RMK A01 T03340094  RH  023%=      5-min Rain = 0
KVA1 121603Z 20006KT 33/09 A3014 RMK A01 T03340094  RH  023%=      5-min Rain = 0
KVA1 121604Z 18005KT 33/09 A3014 RMK A01 T03340093  RH  023%=      5-min Rain = 0
KVA1 121605Z 17005KT 33/09 A3014 RMK A01 T03310093  RH  023%=      5-min Rain = 0
KVA1 121606Z 17005KT 33/09 A3014 RMK A01 T03320094  RH  023%=      5-min Rain = 0
KVA1 121607Z 22006KT 34/09 A3014 RMK A01 T03350093  RH  023%=      5-min Rain = 0
KVA1 121608Z 19007KT 34/09 A3014 RMK A01 T03350093  RH  023%=      5-min Rain = 0
KVA1 121609Z 20006KT 34/09 A3014 RMK A01 T03350094  RH  023%=      5-min Rain = 0
KVA1 121610Z 22007KT 34/09 A3014 RMK A01 T03370093  RH  022%=      5-min Rain = 0
KVA1 121611Z 22005KT 34/09 A3014 RMK A01 T03350092  RH  022%=      5-min Rain = 0
KVA1 121612Z 22005KT 34/09 A3014 RMK A01 T03350093  RH  023%=      5-min Rain = 0
KVA1 121613Z 20005KT 34/09 A3014 RMK A01 T03380093  RH  022%=      5-min Rain = 0
KVA1 121614Z 18006KT 34/09 A3014 RMK A01 T03380093  RH  022%=      5-min Rain = 0
KVA1 121615Z 20006KT 34/09 A3014 RMK A01 T03370094  RH  022%=      5-min Rain = 0
KVA1 121616Z 22007KT 34/09 A3014 RMK A01 T03390094  RH  022%=      5-min Rain = 0
KVA1 121617Z 21005KT 34/09 A3014 RMK A01 T03400093  RH  022%=      5-min Rain = 0
KVA1 121618Z 19005KT 34/09 A3014 RMK A01 T03400094  RH  022%=      5-min Rain = 0
KVA1 121619Z 20005KT 34/09 A3014 RMK A01 T03390094  RH  022%=      5-min Rain = 0
KVA1 121620Z 22006KT 34/09 A3014 RMK A01 T03410093  RH  022%=      5-min Rain = 0
KVA1 121621Z 21004KT 34/09 A3014 RMK A01 T03410092  RH  022%=      5-min Rain = 0
KVA1 121622Z 19004KT 34/09 A3014 RMK A01 T03400092  RH  022%=      5-min Rain = 0
KVA1 121623Z 23002KT 34/09 A3013 RMK A01 T03410094  RH  022%=      5-min Rain = 0
KVA1 121624Z 18004KT 34/09 A3013 RMK A01 T03430092  RH  022%=      5-min Rain = 0
KVA1 121625Z 18006KT 34/09 A3013 RMK A01 T03430093  RH  022%=      5-min Rain = 0
KVA1 121626Z 20005KT 34/09 A3013 RMK A01 T03430093  RH  022%=      5-min Rain = 0
KVA1 121627Z 21002KT 34/09 A3013 RMK A01 T03420092  RH  022%=      5-min Rain = 0
KVA1 121628Z 17004KT 34/09 A3013 RMK A01 T03420093  RH  022%=      5-min Rain = 0
KVA1 121629Z 18005KT 34/09 A3013 RMK A01 T03430094  RH  022%=      5-min Rain = 0
KVA1 121630Z 17005KT 34/09 A3013 RMK A01 T03440094  RH  022%=      5-min Rain = 0
KVA1 121631Z 17004KT 34/09 A3013 RMK A01 T03440093  RH  021%=      5-min Rain = 0
KVA1 121632Z 19006KT 34/09 A3013 RMK A01 T03440091  RH  021%=      5-min Rain = 0
KVA1 121633Z 19005KT 35/09 A3013 RMK A01 T03450092  RH  021%=      5-min Rain = 0
KVA1 121634Z 21003KT 35/09 A3013 RMK A01 T03480091  RH  021%=      5-min Rain = 0
KVA1 121635Z 21005KT 35/09 A3013 RMK A01 T03490092  RH  021%=      5-min Rain = 0
KVA1 121636Z 23005KT 35/09 A3013 RMK A01 T03510092  RH  021%=      5-min Rain = 0
KVA1 121637Z 19004KT 35/09 A3013 RMK A01 T03490091  RH  021%=      5-min Rain = 0
KVA1 121638Z 19006KT 35/09 A3013 RMK A01 T03500093  RH  021%=      5-min Rain = 0
KVA1 121639Z 17006KT 35/09 A3013 RMK A01 T03530093  RH  020%=      5-min Rain = 0
KVA1 121640Z 17003KT 36/09 A3013 RMK A01 T03550093  RH  020%=      5-min Rain = 0
KVA1 121641Z 18008KT 36/09 A3013 RMK A01 T03560094  RH  020%=      5-min Rain = 0
KVA1 121642Z 18006KT 36/09 A3013 RMK A01 T03550093  RH  020%=      5-min Rain = 0
KVA1 121643Z 17005KT 35/09 A3013 RMK A01 T03520092  RH  020%=      5-min Rain = 0
KVA1 121644Z 16004KT 35/09 A3013 RMK A01 T03520093  RH  021%=      5-min Rain = 0
KVA1 121645Z 12002KT 35/09 A3013 RMK A01 T03500092  RH  021%=      5-min Rain = 0
KVA1 121646Z 11002KT 35/09 A3013 RMK A01 T03490093  RH  021%=      5-min Rain = 0
KVA1 121647Z 15003KT 35/09 A3013 RMK A01 T03500093  RH  021%=      5-min Rain = 0
KVA1 121648Z 18003KT 35/10 A3013 RMK A01 T03530095  RH  021%=      5-min Rain = 0
KVA1 121649Z 25003KT 35/09 A3013 RMK A01 T03540092  RH  020%=      5-min Rain = 0
KVA1 121650Z 26005KT 36/09 A3013 RMK A01 T03560093  RH  020%=      5-min Rain = 0
KVA1 121651Z 28006KT 36/09 A3012 RMK A01 T03580092  RH  020%=      5-min Rain = 0
KVA1 121652Z 25005KT 36/09 A3012 RMK A01 T03580093  RH  020%=      5-min Rain = 0
KVA1 121653Z 25006KT 36/09 A3012 RMK A01 T03610092  RH  019%=      5-min Rain = 0
KVA1 121654Z 29006KT 36/09 A3012 RMK A01 T03610091  RH  019%=      5-min Rain = 0
KVA1 121655Z 24006KT 36/09 A3012 RMK A01 T03600091  RH  019%=      5-min Rain = 0
KVA1 121656Z 24005KT 36/09 A3012 RMK A01 T03600090  RH  019%=      5-min Rain = 0
KVA1 121657Z 23007KT 36/09 A3012 RMK A01 T03580088  RH  019%=      5-min Rain = 0
KVA1 121658Z 23008KT 36/09 A3012 RMK A01 T03590088  RH  019%=      5-min Rain = 0
KVA1 121659Z 25005KT 36/09 A3012 RMK A01 T03590085  RH  019%=      5-min Rain = 0
KVA1 121700Z 23007KT 36/09 A3012 RMK A01 T03590086  RH  019%=      5-min Rain = 0
KVA1 121701Z 22005KT 36/09 A3012 RMK A01 T03580085  RH  019%=      5-min Rain = 0
KVA1 121702Z 23008KT 36/09 A3012 RMK A01 T03570085  RH  019%=      5-min Rain = 0
KVA1 121703Z 27005KT 36/08 A3012 RMK A01 T03560084  RH  019%=      5-min Rain = 0
KVA1 121704Z 33001KT 36/08 A3012 RMK A01 T03550083  RH  019%=      5-min Rain = 0
KVA1 121705Z 35002KT 36/08 A3012 RMK A01 T03560084  RH  019%=      5-min Rain = 0
KVA1 121706Z 14003KT 36/09 A3012 RMK A01 T03580086  RH  019%=      5-min Rain = 0
KVA1 121707Z 18008KT 36/09 A3012 RMK A01 T03610089  RH  019%=      5-min Rain = 0
KVA1 121708Z 21008KT 36/09 A3012 RMK A01 T03640087  RH  019%=      5-min Rain = 0
KVA1 121709Z 20007KT 37/09 A3012 RMK A01 T03650085  RH  018%=      5-min Rain = 0
KVA1 121710Z 18005KT 36/08 A3011 RMK A01 T03600083  RH  018%=      5-min Rain = 0
KVA1 121711Z 15006KT 36/09 A3011 RMK A01 T03580085  RH  019%=      5-min Rain = 0
KVA1 121712Z 16003KT 36/09 A3011 RMK A01 T03610086  RH  019%=      5-min Rain = 0
KVA1 121713Z 25003KT 36/08 A3012 RMK A01 T03610082  RH  018%=      5-min Rain = 0
KVA1 121714Z 27006KT 36/08 A3011 RMK A01 T03610083  RH  018%=      5-min Rain = 0
KVA1 121715Z 27006KT 36/08 A3011 RMK A01 T03620083  RH  018%=      5-min Rain = 0
KVA1 121716Z 23006KT 36/08 A3011 RMK A01 T03630082  RH  018%=      5-min Rain = 0
KVA1 121717Z 23008KT 36/08 A3011 RMK A01 T03630084  RH  018%=      5-min Rain = 0
KVA1 121718Z 24006KT 36/08 A3011 RMK A01 T03640082  RH  018%=      5-min Rain = 0
KVA1 121719Z 27006KT 36/08 A3011 RMK A01 T03630081  RH  018%=      5-min Rain = 0
KVA1 121720Z 28005KT 36/08 A3011 RMK A01 T03630078  RH  018%=      5-min Rain = 0
KVA1 121721Z 29004KT 36/08 A3011 RMK A01 T03600077  RH  018%=      5-min Rain = 0
KVA1 121722Z 30007KT 36/08 A3011 RMK A01 T03580078  RH  018%=      5-min Rain = 0
KVA1 121723Z 31004KT 36/08 A3011 RMK A01 T03570078  RH  018%=      5-min Rain = 0
KVA1 121724Z 33006KT 36/08 A3011 RMK A01 T03570077  RH  018%=      5-min Rain = 0
KVA1 121725Z 34005KT 36/08 A3011 RMK A01 T03570077  RH  018%=      5-min Rain = 0
KVA1 121726Z 34004KT 36/08 A3011 RMK A01 T03580079  RH  018%=      5-min Rain = 0
KVA1 121727Z 32004KT 36/08 A3011 RMK A01 T03630079  RH  018%=      5-min Rain = 0
KVA1 121728Z 28002KT 36/08 A3011 RMK A01 T03640078  RH  017%=      5-min Rain = 0
KVA1 121729Z 25002KT 37/08 A3011 RMK A01 T03670079  RH  017%=      5-min Rain = 0
KVA1 121730Z 21004KT 37/08 A3011 RMK A01 T03680079  RH  017%=      5-min Rain = 0
KVA1 121731Z 21005KT 37/08 A3011 RMK A01 T03690076  RH  017%=      5-min Rain = 0
KVA1 121732Z 22003KT 37/07 A3011 RMK A01 T03650074  RH  017%=      5-min Rain = 0
KVA1 121733Z 24004KT 37/08 A3011 RMK A01 T03650076  RH  017%=      5-min Rain = 0
KVA1 121734Z 24002KT 37/08 A3011 RMK A01 T03650076  RH  017%=      5-min Rain = 0
KVA1 121735Z 26002KT 36/08 A3011 RMK A01 T03640076  RH  017%=      5-min Rain = 0
KVA1 121736Z 29003KT 36/08 A3011 RMK A01 T03640076  RH  017%=      5-min Rain = 0
KVA1 121737Z 30001KT 36/08 A3011 RMK A01 T03640076  RH  017%=      5-min Rain = 0
KVA1 121738Z 21004G9KT 36/08 A3011 RMK A01 T03630076  RH  017%=      5-min Rain = 0
KVA1 121739Z 19009KT 37/08 A3011 RMK A01 T03670081  RH  018%=      5-min Rain = 0
KVA1 121740Z 17010KT 37/08 A3011 RMK A01 T03690081  RH  017%=      5-min Rain = 0
KVA1 121741Z 18010KT 37/08 A3011 RMK A01 T03680082  RH  017%=      5-min Rain = 0
KVA1 121742Z 18010KT 37/08 A3011 RMK A01 T03700083  RH  017%=      5-min Rain = 0
KVA1 121743Z 17005KT 37/08 A3011 RMK A01 T03680075  RH  017%=      5-min Rain = 0
KVA1 121744Z 17002KT 37/07 A3011 RMK A01 T03670068  RH  016%=      5-min Rain = 0
KVA1 121745Z 21005KT 37/07 A3011 RMK A01 T03660070  RH  016%=      5-min Rain = 0
KVA1 121746Z 20006KT 37/07 A3011 RMK A01 T03670069  RH  016%=      5-min Rain = 0
KVA1 121747Z 18004KT 37/08 A3011 RMK A01 T03660076  RH  017%=      5-min Rain = 0
KVA1 121748Z 22003KT 37/08 A3011 RMK A01 T03650075  RH  017%=      5-min Rain = 0
KVA1 121749Z 23005KT 37/08 A3011 RMK A01 T03660075  RH  017%=      5-min Rain = 0
KVA1 121750Z 19005KT 37/08 A3011 RMK A01 T03680076  RH  017%=      5-min Rain = 0
KVA1 121751Z 18000KT 37/08 A3011 RMK A01 T03660077  RH  017%=      5-min Rain = 0
KVA1 121752Z 14001KT 37/08 A3011 RMK A01 T03660077  RH  017%=      5-min Rain = 0
KVA1 121753Z 14006KT 37/08 A301 RMK A01 T03680075  RH  017%=      5-min Rain = 0
KVA1 121754Z 14006KT 37/06 A3011 RMK A01 T03710063  RH  015%=      5-min Rain = 0
KVA1 121755Z 16005KT 37/06 A301 RMK A01 T03720060  RH  015%=      5-min Rain = 0
KVA1 121756Z 12006G14KT 37/06 A301 RMK A01 T03730062  RH  015%=      5-min Rain = 0
KVA1 121757Z 12011KT 38/06 A301 RMK A01 T03760064  RH  015%=      5-min Rain = 0
KVA1 121758Z 11007KT 38/06 A301 RMK A01 T03780063  RH  015%=      5-min Rain = 0
KVA1 121759Z 11010KT 38/07 A301 RMK A01 T03780071  RH  015%=      5-min Rain = 0
KVA1 121800Z 10008KT 38/07 A301 RMK A01 T03810073  RH  015%=      5-min Rain = 0
KVA1 121801Z 11010KT 38/07 A301 RMK A01 T03790074  RH  016%=      5-min Rain = 0
KVA1 121802Z 13008KT 38/07 A301 RMK A01 T03760071  RH  016%=      5-min Rain = 0
KVA1 121803Z 15005KT 37/07 A301 RMK A01 T03730069  RH  016%=      5-min Rain = 0
KVA1 121804Z 10005KT 37/07 A301 RMK A01 T03720067  RH  016%=      5-min Rain = 0
KVA1 121805Z 09004KT 37/07 A301 RMK A01 T03710068  RH  016%=      5-min Rain = 0
KVA1 121806Z 09007KT 37/08 A301 RMK A01 T03720080  RH  017%=      5-min Rain = 0
KVA1 121807Z 11005KT 37/08 A301 RMK A01 T03740080  RH  017%=      5-min Rain = 0
KVA1 121808Z 14012KT 38/08 A301 RMK A01 T03760077  RH  016%=      5-min Rain = 0
KVA1 121809Z 16012KT 38/07 A301 RMK A01 T03790074  RH  016%=      5-min Rain = 0
KVA1 121810Z 16013KT 38/07 A301 RMK A01 T03810069  RH  015%=      5-min Rain = 0
KVA1 121811Z 16011KT 38/06 A301 RMK A01 T03800064  RH  014%=      5-min Rain = 0
KVA1 121812Z 15011KT 38/07 A301 RMK A01 T03790066  RH  015%=      5-min Rain = 0
KVA1 121813Z 13007KT 38/06 A301 RMK A01 T03750061  RH  015%=      5-min Rain = 0
KVA1 121814Z 14005KT 37/07 A301 RMK A01 T03710066  RH  015%=      5-min Rain = 0
KVA1 121815Z 15008G14KT 37/07 A301 RMK A01 T03720068  RH  016%=      5-min Rain = 0
KVA1 121816Z 16008KT 37/07 A301 RMK A01 T03720073  RH  016%=      5-min Rain = 0
KVA1 121817Z 23001KT 37/07 A301 RMK A01 T03710072  RH  016%=      5-min Rain = 0
KVA1 121818Z 18001KT 37/07 A301 RMK A01 T03700071  RH  016%=      5-min Rain = 0
KVA1 121819Z 17002KT 37/07 A301 RMK A01 T03700072  RH  016%=      5-min Rain = 0
KVA1 121820Z 21001KT 37/07 A301 RMK A01 T03690072  RH  016%=      5-min Rain = 0
KVA1 121821Z 09001KT 37/07 A3009 RMK A01 T03670072  RH  016%=      5-min Rain = 0
KVA1 121822Z 18001KT 37/07 A3009 RMK A01 T03670074  RH  017%=      5-min Rain = 0
KVA1 121823Z 13007G13KT 37/07 A301 RMK A01 T03710073  RH  016%=      5-min Rain = 0
KVA1 121824Z 12010KT 38/06 A3009 RMK A01 T03770058  RH  014%=      5-min Rain = 0
KVA1 121825Z 09008KT 38/06 A3009 RMK A01 T03800059  RH  014%=      5-min Rain = 0
KVA1 121826Z 07008KT 38/06 A3009 RMK A01 T03760056  RH  014%=      5-min Rain = 0
KVA1 121827Z 08009KT 37/06 A3009 RMK A01 T03740058  RH  014%=      5-min Rain = 0
KVA1 121828Z 16005KT 37/05 A3009 RMK A01 T03740054  RH  014%=      5-min Rain = 0
KVA1 121829Z 15004KT 38/05 A3009 RMK A01 T03760053  RH  014%=      5-min Rain = 0
KVA1 121830Z 15010G17KT 38/05 A3009 RMK A01 T03790052  RH  013%=      5-min Rain = 0
KVA1 121831Z 17011KT 38/05 A3009 RMK A01 T03800052  RH  013%=      5-min Rain = 0
KVA1 121832Z 18014KT 38/05 A3009 RMK A01 T03830052  RH  013%=      5-min Rain = 0
KVA1 121833Z 18014KT 39/06 A3009 RMK A01 T03860057  RH  013%=      5-min Rain = 0
KVA1 121834Z 19011KT 38/06 A3009 RMK A01 T03840056  RH  013%=      5-min Rain = 0
KVA1 121835Z 18012KT 38/06 A3009 RMK A01 T03830057  RH  014%=      5-min Rain = 0
KVA1 121836Z 18008KT 38/06 A3009 RMK A01 T03810055  RH  013%=      5-min Rain = 0
KVA1 121837Z 18009KT 38/06 A3009 RMK A01 T03790056  RH  014%=      5-min Rain = 0
KVA1 121838Z 18012KT 38/06 A3009 RMK A01 T03820059  RH  014%=      5-min Rain = 0
KVA1 121839Z 18008KT 38/06 A3009 RMK A01 T03820055  RH  013%=      5-min Rain = 0
KVA1 121840Z 16009KT 38/06 A3009 RMK A01 T03800058  RH  014%=      5-min Rain = 0
KVA1 121841Z 16010KT 38/06 A3009 RMK A01 T03840059  RH  014%=      5-min Rain = 0
KVA1 121842Z 20006KT 38/05 A3009 RMK A01 T03810051  RH  013%=      5-min Rain = 0
KVA1 121843Z 21005KT 38/05 A3009 RMK A01 T03770052  RH  014%=      5-min Rain = 0
KVA1 121844Z 12003KT 38/05 A3009 RMK A01 T03770054  RH  014%=      5-min Rain = 0
KVA1 121845Z 10001KT 38/06 A3009 RMK A01 T03800058  RH  014%=      5-min Rain = 0
KVA1 121846Z 34001KT 38/06 A3009 RMK A01 T03830056  RH  014%=      5-min Rain = 0
KVA1 121847Z 30000KT 39/06 A3009 RMK A01 T03850055  RH  013%=      5-min Rain = 0
KVA1 121848Z 07001KT 39/06 A3009 RMK A01 T03860055  RH  013%=      5-min Rain = 0
KVA1 121849Z 05002KT 39/06 A3009 RMK A01 T03850055  RH  013%=      5-min Rain = 0
KVA1 121850Z 07002KT 38/06 A3009 RMK A01 T03830056  RH  014%=      5-min Rain = 0
KVA1 121851Z 10002KT 38/06 A3008 RMK A01 T03790059  RH  014%=      5-min Rain = 0
KVA1 121852Z 07002KT 38/06 A3008 RMK A01 T03770058  RH  014%=      5-min Rain = 0
KVA1 121853Z 03005KT 38/06 A3008 RMK A01 T03780056  RH  014%=      5-min Rain = 0
KVA1 121854Z 34003KT 38/06 A3008 RMK A01 T03780055  RH  014%=      5-min Rain = 0
KVA1 121855Z 06001KT 38/06 A3008 RMK A01 T03800058  RH  014%=      5-min Rain = 0
KVA1 121856Z 19001KT 38/06 A3008 RMK A01 T03810058  RH  014%=      5-min Rain = 0
KVA1 121857Z 19003KT 38/06 A3008 RMK A01 T03820057  RH  014%=      5-min Rain = 0
KVA1 121858Z 20004KT 38/06 A3008 RMK A01 T03840057  RH  014%=      5-min Rain = 0
KVA1 121859Z 20003KT 38/06 A3008 RMK A01 T03840058  RH  014%=      5-min Rain = 0
KVA1 121900Z 24003KT 38/06 A3008 RMK A01 T03840057  RH  014%=      5-min Rain = 0
KVA1 121901Z 21003KT 38/06 A3008 RMK A01 T03830056  RH  014%=      5-min Rain = 0
KVA1 121902Z 18009G14KT 38/06 A3008 RMK A01 T03820060  RH  014%=      5-min Rain = 0
KVA1 121903Z 17011KT 38/06 A3008 RMK A01 T03800063  RH  014%=      5-min Rain = 0
KVA1 121904Z 19013KT 38/06 A3007 RMK A01 T03810064  RH  014%=      5-min Rain = 0
KVA1 121905Z 19013KT 38/06 A3007 RMK A01 T03820062  RH  014%=      5-min Rain = 0
KVA1 121906Z 17010KT 38/06 A3007 RMK A01 T03820061  RH  014%=      5-min Rain = 0
KVA1 121907Z 19008G13KT 38/06 A3007 RMK A01 T03820062  RH  014%=      5-min Rain = 0
KVA1 121908Z 19012KT 38/06 A3007 RMK A01 T03830062  RH  014%=      5-min Rain = 0
KVA1 121909Z 20010KT 38/06 A3007 RMK A01 T03830061  RH  014%=      5-min Rain = 0
KVA1 121910Z 23008KT 38/06 A3007 RMK A01 T03820060  RH  014%=      5-min Rain = 0
KVA1 121911Z 25008KT 38/06 A3007 RMK A01 T03800059  RH  014%=      5-min Rain = 0
KVA1 121912Z 24006KT 38/06 A3007 RMK A01 T03810058  RH  014%=      5-min Rain = 0
KVA1 121913Z 16007KT 39/06 A3007 RMK A01 T03850062  RH  014%=      5-min Rain = 0
KVA1 121914Z 17009KT 39/06 A3007 RMK A01 T03890061  RH  014%=      5-min Rain = 0
KVA1 121915Z 20006KT 39/06 A3007 RMK A01 T03870058  RH  013%=      5-min Rain = 0
KVA1 121916Z 17008KT 38/06 A3007 RMK A01 T03830057  RH  014%=      5-min Rain = 0
KVA1 121917Z 18011KT 39/06 A3007 RMK A01 T03860055  RH  013%=      5-min Rain = 0
KVA1 121918Z 17012KT 39/05 A3007 RMK A01 T03940053  RH  012%=      5-min Rain = 0
KVA1 121919Z 19010KT 40/06 A3007 RMK A01 T04010056  RH  012%=      5-min Rain = 0
KVA1 121920Z 16011KT 40/05 A3007 RMK A01 T04040046  RH  011%=      5-min Rain = 0
KVA1 121921Z 15011KT 40/04 A3007 RMK A01 T04020043  RH  011%=      5-min Rain = 0
KVA1 121922Z 15008KT 40/04 A3007 RMK A01 T03970043  RH  011%=      5-min Rain = 0
KVA1 121923Z 14008KT 40/05 A3006 RMK A01 T03960046  RH  012%=      5-min Rain = 0
KVA1 121924Z 19009KT 40/05 A3006 RMK A01 T03970046  RH  012%=      5-min Rain = 0
KVA1 121925Z 20011G16KT 40/05 A3006 RMK A01 T03980047  RH  012%=      5-min Rain = 0
KVA1 121926Z 17009G16KT 39/04 A3006 RMK A01 T03920043  RH  012%=      5-min Rain = 0
KVA1 121927Z 16012KT 39/05 A3006 RMK A01 T03900048  RH  012%=      5-min Rain = 0
KVA1 121928Z 16011KT 39/05 A3006 RMK A01 T03910045  RH  012%=      5-min Rain = 0
KVA1 121929Z 20008KT 39/05 A3006 RMK A01 T03900045  RH  012%=      5-min Rain = 0
KVA1 121930Z 20009KT 39/05 A3006 RMK A01 T03880046  RH  012%=      5-min Rain = 0
KVA1 121931Z 22008G13KT 39/05 A3006 RMK A01 T03860049  RH  013%=      5-min Rain = 0
KVA1 121932Z 23008KT 39/05 A3006 RMK A01 T03850052  RH  013%=      5-min Rain = 0
KVA1 121933Z 22007KT 39/05 A3006 RMK A01 T03850053  RH  013%=      5-min Rain = 0
KVA1 121934Z 21005KT 39/05 A3006 RMK A01 T03860053  RH  013%=      5-min Rain = 0
KVA1 121935Z 21007KT 39/06 A3006 RMK A01 T03870055  RH  013%=      5-min Rain = 0
KVA1 121936Z 18006KT 39/06 A3006 RMK A01 T03860056  RH  013%=      5-min Rain = 0
KVA1 121937Z 19008KT 39/06 A3006 RMK A01 T03860055  RH  013%=      5-min Rain = 0
KVA1 121938Z 18010KT 39/06 A3006 RMK A01 T03860059  RH  013%=      5-min Rain = 0
KVA1 121939Z 19009KT 39/06 A3006 RMK A01 T03870057  RH  013%=      5-min Rain = 0
KVA1 121940Z 20008KT 39/06 A3006 RMK A01 T03900056  RH  013%=      5-min Rain = 0
KVA1 121941Z 20008KT 39/05 A3006 RMK A01 T03890054  RH  013%=      5-min Rain = 0
KVA1 121942Z 17006G11KT 39/05 A3006 RMK A01 T03890050  RH  013%=      5-min Rain = 0
KVA1 121943Z 20009KT 39/05 A3006 RMK A01 T03900048  RH  012%=      5-min Rain = 0
KVA1 121944Z 24003KT 39/04 A3006 RMK A01 T03870042  RH  012%=      5-min Rain = 0
KVA1 121945Z 18009G16KT 39/04 A3006 RMK A01 T03860044  RH  012%=      5-min Rain = 0
KVA1 121946Z 16015KT 39/04 A3006 RMK A01 T03920038  RH  011%=      5-min Rain = 0
KVA1 121947Z 17013KT 40/04 A3006 RMK A01 T03970036  RH  011%=      5-min Rain = 0
KVA1 121948Z 16010KT 40/04 A3006 RMK A01 T03970035  RH  011%=      5-min Rain = 0
KVA1 121949Z 17008KT 39/04 A3006 RMK A01 T03940035  RH  011%=      5-min Rain = 0
KVA1 121950Z 15012KT 40/04 A3006 RMK A01 T03950036  RH  011%=      5-min Rain = 0
KVA1 121951Z 15012KT 40/03 A3006 RMK A01 T03990032  RH  010%=      5-min Rain = 0
KVA1 121952Z 14010KT 40/03 A3006 RMK A01 T03980031  RH  010%=      5-min Rain = 0
KVA1 121953Z 16009KT 40/03 A3006 RMK A01 T03950030  RH  011%=      5-min Rain = 0
KVA1 121954Z 16009KT 40/03 A3006 RMK A01 T03950031  RH  011%=      5-min Rain = 0
KVA1 121955Z 15007KT 40/03 A3006 RMK A01 T03970031  RH  010%=      5-min Rain = 0
KVA1 121956Z 17006KT 40/03 A3006 RMK A01 T03970027  RH  010%=      5-min Rain = 0
KVA1 121957Z 19003KT 39/02 A3006 RMK A01 T03920024  RH  010%=      5-min Rain = 0
KVA1 121958Z 22005KT 39/03 A3005 RMK A01 T03890025  RH  011%=      5-min Rain = 0
KVA1 121959Z 15005KT 39/03 A3005 RMK A01 T03900027  RH  011%=      5-min Rain = 0
KVA1 122000Z 06003KT 39/03 A3005 RMK A01 T03910028  RH  011%=      5-min Rain = 0
KVA1 122001Z 14002KT 39/03 A3005 RMK A01 T03880026  RH  011%=      5-min Rain = 0
KVA1 122002Z 12001KT 39/03 A3005 RMK A01 T03860026  RH  011%=      5-min Rain = 0
KVA1 122003Z 17006G13KT 39/02 A3005 RMK A01 T03880020  RH  010%=      5-min Rain = 0
KVA1 122004Z 16012KT 39/01 A3005 RMK A01 T03930014  RH  010%=      5-min Rain = 0
KVA1 122005Z 16015G20KT 40/02 A3005 RMK A01 T04000015  RH  009%=      5-min Rain = 0
KVA1 122006Z 16012G18KT 40/01 A3005 RMK A01 T04030014  RH  009%=      5-min Rain = 0
KVA1 122007Z 15013KT 40/01 A3005 RMK A01 T04030013  RH  009%=      5-min Rain = 0
KVA1 122008Z 15012KT 40/01 A3005 RMK A01 T04000011  RH  009%=      5-min Rain = 0
KVA1 122009Z 14013KT 40/01 A3005 RMK A01 T04010012  RH  009%=      5-min Rain = 0
KVA1 122010Z 14014KT 40/01 A3005 RMK A01 T04020014  RH  009%=      5-min Rain = 0
KVA1 122011Z 14010KT 40/01 A3005 RMK A01 T04000012  RH  009%=      5-min Rain = 0
KVA1 122012Z 14008KT 40/01 A3005 RMK A01 T03970013  RH  009%=      5-min Rain = 0
KVA1 122013Z 16008KT 40/01 A3005 RMK A01 T03950011  RH  009%=      5-min Rain = 0
KVA1 122014Z 19006KT 40/01 A3005 RMK A01 T03950010  RH  009%=      5-min Rain = 0
KVA1 122015Z 20007KT 39/01 A3005 RMK A01 T03940009  RH  009%=      5-min Rain = 0
KVA1 122016Z 23006KT 39/01 A3004 RMK A01 T03930009  RH  009%=      5-min Rain = 0
KVA1 122017Z 21003KT 39/01 A3004 RMK A01 T03900007  RH  009%=      5-min Rain = 0
KVA1 122018Z 13006KT 39/01 A3004 RMK A01 T03910010  RH  009%=      5-min Rain = 0
KVA1 122019Z 11004KT 39/01 A3004 RMK A01 T03930014  RH  010%=      5-min Rain = 0
KVA1 122020Z 17007KT 40/02 A3004 RMK A01 T03970017  RH  010%=      5-min Rain = 0
KVA1 122021Z 19011KT 40/02 A3004 RMK A01 T04030018  RH  009%=      5-min Rain = 0
KVA1 122022Z 19013KT 40/01 A3004 RMK A01 T04040013  RH  009%=      5-min Rain = 0
KVA1 122023Z 16011KT 40/00 A3005 RMK A01 T03980001  RH  008%=      5-min Rain = 0
KVA1 122024Z 16010G15KT 40/M00 A3005 RMK A01 T03971003  RH  008%=      5-min Rain = 0
KVA1 122025Z 13009KT 40/M00 A3004 RMK A01 T03961003  RH  008%=      5-min Rain = 0
KVA1 122026Z 10010KT 40/00 A3004 RMK A01 T03960001  RH  009%=      5-min Rain = 0
KVA1 122027Z 07008KT 40/01 A3004 RMK A01 T03970005  RH  009%=      5-min Rain = 0
KVA1 122028Z 04006KT 40/00 A3004 RMK A01 T03960002  RH  009%=      5-min Rain = 0
KVA1 122029Z 04005KT 39/M00 A3004 RMK A01 T03941002  RH  008%=      5-min Rain = 0
KVA1 122030Z 10003KT 39/00 A3004 RMK A01 T039400-0  RH  009%=      5-min Rain = 0
KVA1 122031Z 19006G13KT 39/00 A3004 RMK A01 T03940002  RH  009%=      5-min Rain = 0
KVA1 122032Z 18009G14KT 40/00 A3004 RMK A01 T03960002  RH  009%=      5-min Rain = 0
KVA1 122033Z 15006KT 40/00 A3004 RMK A01 T03970002  RH  009%=      5-min Rain = 0
KVA1 122034Z 18007KT 40/00 A3004 RMK A01 T03990003  RH  009%=      5-min Rain = 0
KVA1 122035Z 18005KT 40/M00 A3004 RMK A01 T03981001  RH  008%=      5-min Rain = 0
KVA1 122036Z 18008KT 39/M00 A3004 RMK A01 T03941001  RH  009%=      5-min Rain = 0
KVA1 122037Z 15009G16KT 40/01 A3004 RMK A01 T03970005  RH  009%=      5-min Rain = 0
KVA1 122038Z 09010G15KT 40/01 A3004 RMK A01 T04020005  RH  009%=      5-min Rain = 0
KVA1 122039Z 10011KT 40/01 A3004 RMK A01 T04030007  RH  009%=      5-min Rain = 0
KVA1 122040Z 10008KT 40/01 A3004 RMK A01 T04010007  RH  009%=      5-min Rain = 0
KVA1 122041Z 11009KT 40/01 A3004 RMK A01 T04000006  RH  009%=      5-min Rain = 0
KVA1 122042Z 12007KT 40/00 A3004 RMK A01 T04000004  RH  009%=      5-min Rain = 0
KVA1 122043Z 12006KT 40/01 A3004 RMK A01 T04010005  RH  009%=      5-min Rain = 0
KVA1 122044Z 11011KT 40/01 A3003 RMK A01 T04030005  RH  008%=      5-min Rain = 0
KVA1 122045Z 09009KT 41/01 A3003 RMK A01 T04060009  RH  009%=      5-min Rain = 0
KVA1 122046Z 08007KT 41/01 A3003 RMK A01 T04050008  RH  009%=      5-min Rain = 0
KVA1 122047Z 04006KT 40/M00 A3003 RMK A01 T04021001  RH  008%=      5-min Rain = 0
KVA1 122048Z 07003KT 40/M00 A3003 RMK A01 T03981004  RH  008%=      5-min Rain = 0
KVA1 122049Z 09006KT 40/00 A3003 RMK A01 T03960002  RH  009%=      5-min Rain = 0
KVA1 122050Z 10005KT 40/01 A3003 RMK A01 T03960006  RH  009%=      5-min Rain = 0
KVA1 122051Z 10004KT 40/00 A3003 RMK A01 T03950000  RH  009%=      5-min Rain = 0
KVA1 122052Z 09004KT 40/00 A3003 RMK A01 T03950002  RH  009%=      5-min Rain = 0
KVA1 122053Z 09008KT 40/01 A3003 RMK A01 T03950009  RH  009%=      5-min Rain = 0
KVA1 122054Z 12007KT 40/00 A3003 RMK A01 T03960003  RH  009%=      5-min Rain = 0
KVA1 122055Z 11009KT 40/00 A3003 RMK A01 T04000001  RH  008%=      5-min Rain = 0
KVA1 122056Z 15012KT 40/00 A3003 RMK A01 T04040002  RH  008%=      5-min Rain = 0
KVA1 122057Z 18010KT 41/00 A3003 RMK A01 T04080000  RH  008%=      5-min Rain = 0
KVA1 122058Z 19008KT 40/M00 A3003 RMK A01 T04031003  RH  008%=      5-min Rain = 0
KVA1 122059Z 12008KT 40/00 A3002 RMK A01 T04020002  RH  008%=      5-min Rain = 0
KVA1 122100Z 12008KT 41/01 A3003 RMK A01 T04060006  RH  008%=      5-min Rain = 0
KVA1 122101Z 13010KT 41/00 A3003 RMK A01 T04110000  RH  008%=      5-min Rain = 0
KVA1 122102Z 10006KT 41/M00 A3003 RMK A01 T04081001  RH  008%=      5-min Rain = 0
KVA1 122103Z 12008KT 41/00 A3003 RMK A01 T04060002  RH  008%=      5-min Rain = 0
KVA1 122104Z 11009KT 41/00 A3003 RMK A01 T04050001  RH  008%=      5-min Rain = 0
KVA1 122105Z 14009KT 41/00 A3003 RMK A01 T040600-0  RH  008%=      5-min Rain = 0
KVA1 122106Z 15007KT 41/00 A3003 RMK A01 T040600-0  RH  008%=      5-min Rain = 0
KVA1 122107Z 18013KT 41/M00 A3003 RMK A01 T04101001  RH  008%=      5-min Rain = 0
KVA1 122108Z 18014KT 41/M01 A3002 RMK A01 T04091005  RH  008%=      5-min Rain = 0
KVA1 122109Z 18012KT 41/M00 A3003 RMK A01 T04091003  RH  008%=      5-min Rain = 0
KVA1 122110Z 18011KT 41/M00 A3003 RMK A01 T04091003  RH  008%=      5-min Rain = 0
KVA1 122111Z 19008KT 41/M01 A3003 RMK A01 T04071007  RH  008%=      5-min Rain = 0
KVA1 122112Z 19008KT 41/M01 A3002 RMK A01 T04051007  RH  008%=      5-min Rain = 0
KVA1 122113Z 21004KT 40/M01 A3002 RMK A01 T04021007  RH  008%=      5-min Rain = 0
KVA1 122114Z 19005KT 40/M01 A3002 RMK A01 T04021007  RH  008%=      5-min Rain = 0
KVA1 122115Z 15009KT 40/M01 A3002 RMK A01 T04031005  RH  008%=      5-min Rain = 0
KVA1 122116Z 19007G12KT 41/M00 A3002 RMK A01 T04051003  RH  008%=      5-min Rain = 0
KVA1 122117Z 09008G15KT 41/M00 A3002 RMK A01 T04081002  RH  008%=      5-min Rain = 0
KVA1 122118Z 13012G17KT 41/00 A3002 RMK A01 T04060000  RH  008%=      5-min Rain = 0
KVA1 122119Z 14011KT 40/00 A3002 RMK A01 T040400-0  RH  008%=      5-min Rain = 0
KVA1 122120Z 14010KT 41/M00 A3002 RMK A01 T04061001  RH  008%=      5-min Rain = 0
KVA1 122121Z 13010KT 41/M00 A3002 RMK A01 T04051003  RH  008%=      5-min Rain = 0
KVA1 122122Z 13008KT 40/M00 A3002 RMK A01 T04031001  RH  008%=      5-min Rain = 0
KVA1 122123Z 14009KT 40/M00 A3002 RMK A01 T04031002  RH  008%=      5-min Rain = 0
KVA1 122124Z 14010KT 40/M00 A3002 RMK A01 T04021001  RH  008%=      5-min Rain = 0
KVA1 122125Z 14009G15KT 41/00 A3002 RMK A01 T04050002  RH  008%=      5-min Rain = 0
KVA1 122126Z 14013KT 41/00 A3002 RMK A01 T040700-0  RH  008%=      5-min Rain = 0
KVA1 122127Z 16014KT 41/M00 A3002 RMK A01 T04081001  RH  008%=      5-min Rain = 0
KVA1 122128Z 16013G18KT 41/M00 A3002 RMK A01 T04081002  RH  008%=      5-min Rain = 0
KVA1 122129Z 15008G13KT 41/M00 A3002 RMK A01 T04061003  RH  008%=      5-min Rain = 0
KVA1 122130Z 18013KT 40/M00 A3002 RMK A01 T04041003  RH  008%=      5-min Rain = 0
KVA1 122131Z 17011G17KT 41/00 A3002 RMK A01 T040600-0  RH  008%=      5-min Rain = 0
KVA1 122132Z 15015KT 41/M00 A3002 RMK A01 T04101001  RH  008%=      5-min Rain = 0
KVA1 122133Z 15013KT 41/M00 A3002 RMK A01 T04101003  RH  008%=      5-min Rain = 0
KVA1 122134Z 17009KT 41/M00 A3002 RMK A01 T04091002  RH  008%=      5-min Rain = 0
KVA1 122135Z 17010G15KT 41/M00 A3002 RMK A01 T04091001  RH  008%=      5-min Rain = 0
KVA1 122136Z 19007KT 41/M01 A3002 RMK A01 T04051005  RH  008%=      5-min Rain = 0
KVA1 122137Z 16007KT 40/M00 A3002 RMK A01 T04031004  RH  008%=      5-min Rain = 0
KVA1 122138Z 16011KT 40/M00 A3002 RMK A01 T04031004  RH  008%=      5-min Rain = 0
KVA1 122139Z 17014KT 40/M01 A3002 RMK A01 T04041005  RH  008%=      5-min Rain = 0
KVA1 122140Z 15013KT 41/M01 A3002 RMK A01 T04051006  RH  008%=      5-min Rain = 0
KVA1 122141Z 16010KT 41/M01 A3002 RMK A01 T04051005  RH  008%=      5-min Rain = 0
KVA1 122142Z 18009KT 41/M01 A3002 RMK A01 T04051005  RH  008%=      5-min Rain = 0
KVA1 122143Z 17010G15KT 41/M00 A3002 RMK A01 T04061004  RH  008%=      5-min Rain = 0
KVA1 122144Z 18006KT 41/M00 A3001 RMK A01 T04061003  RH  008%=      5-min Rain = 0
KVA1 122145Z 20006KT 41/M00 A3001 RMK A01 T04081002  RH  008%=      5-min Rain = 0
KVA1 122146Z 22008KT 41/M00 A3001 RMK A01 T04101004  RH  008%=      5-min Rain = 0
KVA1 122147Z 21009G15KT 41/M01 A3001 RMK A01 T04071005  RH  008%=      5-min Rain = 0
KVA1 122148Z 19015KT 41/M00 A3001 RMK A01 T04071004  RH  008%=      5-min Rain = 0
KVA1 122149Z 16013KT 41/M01 A3001 RMK A01 T04071005  RH  008%=      5-min Rain = 0
KVA1 122150Z 15011KT 41/M00 A3001 RMK A01 T04071003  RH  008%=      5-min Rain = 0
KVA1 122151Z 15013KT 41/M00 A3001 RMK A01 T04071004  RH  008%=      5-min Rain = 0
KVA1 122152Z 15009KT 41/M01 A3001 RMK A01 T04061005  RH  008%=      5-min Rain = 0
KVA1 122153Z 14010KT 41/M00 A3001 RMK A01 T04051004  RH  008%=      5-min Rain = 0
KVA1 122154Z 16014KT 41/M00 A3001 RMK A01 T04051003  RH  008%=      5-min Rain = 0
KVA1 122155Z 17013KT 41/M00 A3001 RMK A01 T04071003  RH  008%=      5-min Rain = 0
KVA1 122156Z 16007KT 41/M00 A3001 RMK A01 T04071004  RH  008%=      5-min Rain = 0
KVA1 122157Z 14006KT 41/M00 A3001 RMK A01 T04061003  RH  008%=      5-min Rain = 0
KVA1 122158Z 16005KT 40/M01 A3001 RMK A01 T04041005  RH  008%=      5-min Rain = 0
KVA1 122159Z 14001KT 40/M00 A3001 RMK A01 T04001004  RH  008%=      5-min Rain = 0
KVA1 122200Z 15002KT 40/M00 A3001 RMK A01 T03991004  RH  008%=      5-min Rain = 0
KVA1 122201Z 14005KT 40/M00 A3001 RMK A01 T03991004  RH  008%=      5-min Rain = 0
KVA1 122202Z 16010G15KT 40/M00 A3001 RMK A01 T04001001  RH  008%=      5-min Rain = 0
KVA1 122203Z 16015KT 40/M00 A3001 RMK A01 T04011001  RH  008%=      5-min Rain = 0
KVA1 122204Z 16012KT 40/00 A3001 RMK A01 T04030001  RH  008%=      5-min Rain = 0
KVA1 122205Z 18013KT 41/00 A3001 RMK A01 T04060002  RH  008%=      5-min Rain = 0
KVA1 122206Z 18012KT 41/00 A3001 RMK A01 T04070002  RH  008%=      5-min Rain = 0
KVA1 122207Z 17011KT 41/00 A3001 RMK A01 T04060001  RH  008%=      5-min Rain = 0
KVA1 122208Z 19008KT 41/00 A3001 RMK A01 T040500-0  RH  008%=      5-min Rain = 0
KVA1 122209Z 18008KT 41/00 A3001 RMK A01 T04050001  RH  008%=      5-min Rain = 0
KVA1 122210Z 13006KT 41/00 A3001 RMK A01 T04050001  RH  008%=      5-min Rain = 0
KVA1 122211Z 11003KT 41/00 A3001 RMK A01 T04050002  RH  008%=      5-min Rain = 0
KVA1 122212Z 08002KT 40/M00 A3001 RMK A01 T04021001  RH  008%=      5-min Rain = 0
KVA1 122213Z 15004KT 40/00 A3001 RMK A01 T04010000  RH  008%=      5-min Rain = 0
KVA1 122214Z 13007G12KT 40/00 A30 RMK A01 T04010002  RH  008%=      5-min Rain = 0
KVA1 122215Z 14013KT 40/00 A30 RMK A01 T04010004  RH  008%=      5-min Rain = 0
KVA1 122216Z 18011KT 41/01 A30 RMK A01 T04060006  RH  008%=      5-min Rain = 0
KVA1 122217Z 20011KT 41/01 A30 RMK A01 T04100005  RH  008%=      5-min Rain = 0
KVA1 122218Z 17011KT 41/01 A30 RMK A01 T04070005  RH  008%=      5-min Rain = 0
KVA1 122219Z 13010KT 41/00 A30 RMK A01 T04070002  RH  008%=      5-min Rain = 0
KVA1 122220Z 15008KT 40/00 A30 RMK A01 T04040001  RH  008%=      5-min Rain = 0
KVA1 122221Z 16009KT 40/00 A30 RMK A01 T04010002  RH  008%=      5-min Rain = 0
KVA1 122222Z 16008KT 40/00 A30 RMK A01 T04000002  RH  008%=      5-min Rain = 0
KVA1 122223Z 16008KT 40/00 A30 RMK A01 T04010004  RH  008%=      5-min Rain = 0
KVA1 122224Z 17009G14KT 40/00 A30 RMK A01 T04030004  RH  008%=      5-min Rain = 0
KVA1 122225Z 17013KT 41/01 A30 RMK A01 T04060006  RH  008%=      5-min Rain = 0
KVA1 122226Z 20014KT 41/01 A30 RMK A01 T04080007  RH  008%=      5-min Rain = 0
KVA1 122227Z 21014KT 41/01 A30 RMK A01 T04080007  RH  008%=      5-min Rain = 0
KVA1 122228Z 20013KT 41/01 A30 RMK A01 T04070005  RH  008%=      5-min Rain = 0
KVA1 122229Z 21012KT 41/00 A30 RMK A01 T04060003  RH  008%=      5-min Rain = 0
KVA1 122230Z 20010KT 41/00 A30 RMK A01 T04050003  RH  008%=      5-min Rain = 0
KVA1 122231Z 22007KT 40/00 A30 RMK A01 T04010000  RH  008%=      5-min Rain = 0
KVA1 122232Z 22011KT 40/00 A30 RMK A01 T04000002  RH  008%=      5-min Rain = 0
KVA1 122233Z 22010G15KT 40/00 A30 RMK A01 T04020002  RH  008%=      5-min Rain = 0
KVA1 122234Z 22011KT 40/00 A30 RMK A01 T04030002  RH  008%=      5-min Rain = 0
KVA1 122235Z 21007KT 40/00 A30 RMK A01 T04030000  RH  008%=      5-min Rain = 0
KVA1 122236Z 21005KT 40/00 A30 RMK A01 T040100-0  RH  008%=      5-min Rain = 0
KVA1 122237Z 22004KT 40/00 A30 RMK A01 T04010001  RH  008%=      5-min Rain = 0
KVA1 122238Z 20005KT 40/00 A30 RMK A01 T04020001  RH  008%=      5-min Rain = 0
KVA1 122239Z 18005KT 40/00 A30 RMK A01 T04020003  RH  008%=      5-min Rain = 0
KVA1 122240Z 21004KT 40/00 A30 RMK A01 T04020002  RH  008%=      5-min Rain = 0
KVA1 122241Z 23006G13KT 40/00 A2999 RMK A01 T04020003  RH  008%=      5-min Rain = 0
KVA1 122242Z 22009KT 41/00 A2999 RMK A01 T04050004  RH  008%=      5-min Rain = 0
KVA1 122243Z 23010KT 41/00 A2999 RMK A01 T04070004  RH  008%=      5-min Rain = 0
KVA1 122244Z 23006KT 40/00 A2999 RMK A01 T040200-0  RH  008%=      5-min Rain = 0
KVA1 122245Z 22003KT 40/M00 A2999 RMK A01 T03981001  RH  008%=      5-min Rain = 0
KVA1 122246Z 23003KT 40/00 A2999 RMK A01 T03970000  RH  008%=      5-min Rain = 0
KVA1 122247Z 21006KT 40/00 A2999 RMK A01 T03990003  RH  008%=      5-min Rain = 0
KVA1 122248Z 19009KT 40/01 A2999 RMK A01 T04040006  RH  008%=      5-min Rain = 0
KVA1 122249Z 19009KT 41/01 A2999 RMK A01 T04050005  RH  008%=      5-min Rain = 0
KVA1 122250Z 16008KT 40/01 A30 RMK A01 T04040005  RH  008%=      5-min Rain = 0
KVA1 122251Z 13007KT 40/01 A30 RMK A01 T04040006  RH  008%=      5-min Rain = 0
KVA1 122252Z 13008G13KT 41/01 A2999 RMK A01 T04050007  RH  008%=      5-min Rain = 0
KVA1 122253Z 17010KT 40/01 A2999 RMK A01 T04040008  RH  009%=      5-min Rain = 0
KVA1 122254Z 17009KT 41/01 A2999 RMK A01 T04050009  RH  009%=      5-min Rain = 0
KVA1 122255Z 17008KT 41/01 A2999 RMK A01 T04060008  RH  009%=      5-min Rain = 0
KVA1 122256Z 16007KT 41/01 A2999 RMK A01 T04060008  RH  009%=      5-min Rain = 0
KVA1 122257Z 18008KT 41/01 A2999 RMK A01 T04080009  RH  009%=      5-min Rain = 0
KVA1 122258Z 15008KT 41/01 A2999 RMK A01 T04080008  RH  008%=      5-min Rain = 0
KVA1 122259Z 14004KT 41/01 A2999 RMK A01 T04070009  RH  009%=      5-min Rain = 0
KVA1 122300Z 12005KT 41/01 A2999 RMK A01 T04090009  RH  008%=      5-min Rain = 0
KVA1 122301Z 12006KT 41/01 A2999 RMK A01 T04070007  RH  008%=      5-min Rain = 0
KVA1 122302Z 13005KT 41/01 A2999 RMK A01 T04050008  RH  009%=      5-min Rain = 0
KVA1 122303Z 14005KT 41/01 A2999 RMK A01 T04050007  RH  008%=      5-min Rain = 0
KVA1 122304Z 14005KT 41/01 A2999 RMK A01 T04050008  RH  009%=      5-min Rain = 0
KVA1 122305Z 13005KT 40/01 A2999 RMK A01 T04040008  RH  009%=      5-min Rain = 0
KVA1 122306Z 12009KT 41/01 A2999 RMK A01 T04050008  RH  009%=      5-min Rain = 0
KVA1 122307Z 12011KT 41/01 A2999 RMK A01 T04060008  RH  008%=      5-min Rain = 0
KVA1 122308Z 12010G17KT 41/01 A2999 RMK A01 T04060008  RH  008%=      5-min Rain = 0
KVA1 122309Z 13012KT 41/01 A2999 RMK A01 T04050006  RH  008%=      5-min Rain = 0
KVA1 122310Z 13011KT 41/01 A2999 RMK A01 T04050005  RH  008%=      5-min Rain = 0
KVA1 122311Z 12009KT 40/01 A2999 RMK A01 T04040006  RH  008%=      5-min Rain = 0
KVA1 122312Z 14008KT 40/01 A2999 RMK A01 T04030005  RH  008%=      5-min Rain = 0
KVA1 122313Z 12009KT 40/01 A2999 RMK A01 T04010005  RH  009%=      5-min Rain = 0
KVA1 122314Z 11006KT 40/01 A2999 RMK A01 T04000006  RH  009%=      5-min Rain = 0
KVA1 122315Z 11008KT 40/01 A2999 RMK A01 T04000006  RH  009%=      5-min Rain = 0
KVA1 122316Z 10007KT 40/01 A2999 RMK A01 T04010009  RH  009%=      5-min Rain = 0
KVA1 122317Z 11005KT 40/01 A2999 RMK A01 T04020012  RH  009%=      5-min Rain = 0
KVA1 122318Z 12007KT 40/01 A2998 RMK A01 T04020009  RH  009%=      5-min Rain = 0
KVA1 122319Z 11010KT 41/01 A2998 RMK A01 T04050007  RH  008%=      5-min Rain = 0
KVA1 122320Z 11009KT 41/01 A2998 RMK A01 T04050009  RH  009%=      5-min Rain = 0
KVA1 122321Z 11007KT 40/01 A2998 RMK A01 T04040007  RH  009%=      5-min Rain = 0
KVA1 122322Z 11005KT 40/01 A2998 RMK A01 T04030011  RH  009%=      5-min Rain = 0
KVA1 122323Z 08003KT 40/01 A2998 RMK A01 T04040014  RH  009%=      5-min Rain = 0
KVA1 122324Z 09004KT 40/01 A2998 RMK A01 T04040012  RH  009%=      5-min Rain = 0
KVA1 122325Z 13004KT 40/02 A2998 RMK A01 T04030015  RH  009%=      5-min Rain = 0
KVA1 122326Z 17004KT 40/01 A2998 RMK A01 T04020006  RH  009%=      5-min Rain = 0
KVA1 122327Z 17004KT 40/01 A2998 RMK A01 T04020008  RH  009%=      5-min Rain = 0
KVA1 122328Z 18009G14KT 40/01 A2998 RMK A01 T04030010  RH  009%=      5-min Rain = 0
KVA1 122329Z 17013KT 40/01 A2998 RMK A01 T04030008  RH  009%=      5-min Rain = 0
KVA1 122330Z 19010KT 40/01 A2998 RMK A01 T04030008  RH  009%=      5-min Rain = 0
KVA1 122331Z 18012KT 40/01 A2998 RMK A01 T04020008  RH  009%=      5-min Rain = 0
KVA1 122332Z 18012KT 40/01 A2998 RMK A01 T04010007  RH  009%=      5-min Rain = 0
KVA1 122333Z 16010KT 40/01 A2998 RMK A01 T04000008  RH  009%=      5-min Rain = 0
KVA1 122334Z 15008KT 40/01 A2998 RMK A01 T04000007  RH  009%=      5-min Rain = 0
KVA1 122335Z 17007KT 40/01 A2998 RMK A01 T04010007  RH  009%=      5-min Rain = 0
KVA1 122336Z 17007KT 40/01 A2998 RMK A01 T04020008  RH  009%=      5-min Rain = 0
KVA1 122337Z 17007KT 40/01 A2998 RMK A01 T04040010  RH  009%=      5-min Rain = 0
KVA1 122338Z 15007KT 40/01 A2998 RMK A01 T04040008  RH  009%=      5-min Rain = 0
KVA1 122339Z 19007KT 40/01 A2998 RMK A01 T04020008  RH  009%=      5-min Rain = 0
KVA1 122340Z 18013KT 40/01 A2998 RMK A01 T04010008  RH  009%=      5-min Rain = 0
KVA1 122341Z 19011KT 40/01 A2998 RMK A01 T04010008  RH  009%=      5-min Rain = 0
KVA1 122342Z 19009KT 40/01 A2998 RMK A01 T04010008  RH  009%=      5-min Rain = 0
KVA1 122343Z 19008KT 40/01 A2998 RMK A01 T04000007  RH  009%=      5-min Rain = 0
KVA1 122344Z 18006KT 40/01 A2998 RMK A01 T03980007  RH  009%=      5-min Rain = 0
KVA1 122345Z 21007KT 40/01 A2998 RMK A01 T03980008  RH  009%=      5-min Rain = 0
KVA1 122346Z 22006KT 40/01 A2998 RMK A01 T03980007  RH  009%=      5-min Rain = 0
KVA1 122347Z 23010KT 40/01 A2998 RMK A01 T04000008  RH  009%=      5-min Rain = 0
KVA1 122348Z 22004KT 40/01 A2998 RMK A01 T04010007  RH  009%=      5-min Rain = 0
KVA1 122349Z 26005KT 40/01 A2998 RMK A01 T04000007  RH  009%=      5-min Rain = 0
KVA1 122350Z 26005KT 40/01 A2998 RMK A01 T03990006  RH  009%=      5-min Rain = 0
KVA1 122351Z 25007KT 40/01 A2998 RMK A01 T03990006  RH  009%=      5-min Rain = 0
KVA1 122352Z 23004KT 40/01 A2998 RMK A01 T03990005  RH  009%=      5-min Rain = 0
KVA1 122353Z 20004KT 40/01 A2998 RMK A01 T03980007  RH  009%=      5-min Rain = 0
KVA1 122354Z 21008KT 40/01 A2998 RMK A01 T03980009  RH  009%=      5-min Rain = 0
KVA1 122355Z 22007KT 40/01 A2998 RMK A01 T04000009  RH  009%=      5-min Rain = 0
KVA1 122356Z 21007KT 40/01 A2998 RMK A01 T04000007  RH  009%=      5-min Rain = 0
KVA1 122357Z 21004KT 40/01 A2998 RMK A01 T03980008  RH  009%=      5-min Rain = 0
KVA1 122358Z 22002KT 40/01 A2998 RMK A01 T03980008  RH  009%=      5-min Rain = 0
KVA1 122359Z 17007G13KT 40/01 A2997 RMK A01 T03980008  RH  009%=      5-min Rain = 0
KVA1 130000Z 17012KT 40/01 A2997 RMK A01 T03990010  RH  009%=      5-min Rain = 0
KVA1 130001Z 19010KT 40/01 A2998 RMK A01 T04010012  RH  009%=      5-min Rain = 0
KVA1 130002Z 19009KT 40/01 A2998 RMK A01 T04010011  RH  009%=      5-min Rain = 0
KVA1 130003Z 20007KT 40/01 A2998 RMK A01 T03990010  RH  009%=      5-min Rain = 0
KVA1 130004Z 19006KT 40/01 A2998 RMK A01 T03970010  RH  009%=      5-min Rain = 0
KVA1 130005Z 20007KT 40/01 A2998 RMK A01 T03970010  RH  009%=      5-min Rain = 0
KVA1 130006Z 19007KT 40/01 A2998 RMK A01 T03970011  RH  009%=      5-min Rain = 0
KVA1 130007Z 21004KT 40/01 A2998 RMK A01 T03970011  RH  009%=      5-min Rain = 0
KVA1 130008Z 20006KT 40/01 A2998 RMK A01 T03970010  RH  009%=      5-min Rain = 0
KVA1 130009Z 22004KT 40/01 A2998 RMK A01 T03960009  RH  009%=      5-min Rain = 0
KVA1 130010Z 18003KT 40/01 A2998 RMK A01 T03960009  RH  009%=      5-min Rain = 0
KVA1 130011Z 17009KT 40/01 A2998 RMK A01 T03960010  RH  009%=      5-min Rain = 0
KVA1 130012Z 19012KT 40/01 A2998 RMK A01 T03960011  RH  009%=      5-min Rain = 0
KVA1 130013Z 18011KT 40/01 A2998 RMK A01 T03960010  RH  009%=      5-min Rain = 0
KVA1 130014Z 16010KT 40/01 A2998 RMK A01 T03950010  RH  009%=      5-min Rain = 0
KVA1 130015Z 17011KT 39/01 A2998 RMK A01 T03940010  RH  009%=      5-min Rain = 0
KVA1 130016Z 17009KT 40/01 A2998 RMK A01 T03950011  RH  009%=      5-min Rain = 0
KVA1 130017Z 16006KT 40/01 A2998 RMK A01 T03950010  RH  009%=      5-min Rain = 0
KVA1 130018Z 17006KT 40/01 A2998 RMK A01 T03950011  RH  009%=      5-min Rain = 0
KVA1 130019Z 20011KT 40/01 A2998 RMK A01 T03950011  RH  009%=      5-min Rain = 0
KVA1 130020Z 20005KT 40/01 A2998 RMK A01 T03950011  RH  009%=      5-min Rain = 0
KVA1 130021Z 20005KT 39/01 A2998 RMK A01 T03940012  RH  009%=      5-min Rain = 0
KVA1 130022Z 21004KT 39/01 A2998 RMK A01 T03940011  RH  009%=      5-min Rain = 0
KVA1 130023Z 19004KT 39/01 A2998 RMK A01 T03940011  RH  009%=      5-min Rain = 0
KVA1 130024Z 20005KT 39/01 A2998 RMK A01 T03940013  RH  009%=      5-min Rain = 0
KVA1 130025Z 20006KT 39/01 A2998 RMK A01 T03940012  RH  009%=      5-min Rain = 0
KVA1 130026Z 21007KT 39/01 A2998 RMK A01 T03940012  RH  009%=      5-min Rain = 0
KVA1 130027Z 20003KT 39/01 A2998 RMK A01 T03940011  RH  009%=      5-min Rain = 0
KVA1 130028Z 18005KT 39/01 A2998 RMK A01 T03940013  RH  009%=      5-min Rain = 0
KVA1 130029Z 19009KT 40/02 A2998 RMK A01 T03950017  RH  010%=      5-min Rain = 0
KVA1 130030Z 20011KT 40/02 A2998 RMK A01 T03960015  RH  009%=      5-min Rain = 0
KVA1 130031Z 20010KT 40/01 A2998 RMK A01 T03960014  RH  009%=      5-min Rain = 0
KVA1 130032Z 20008KT 39/01 A2998 RMK A01 T03940013  RH  009%=      5-min Rain = 0
KVA1 130033Z 20008KT 39/01 A2998 RMK A01 T03930014  RH  010%=      5-min Rain = 0
KVA1 130034Z 21006KT 39/01 A2998 RMK A01 T03930014  RH  010%=      5-min Rain = 0
KVA1 130035Z 21008KT 39/01 A2998 RMK A01 T03920013  RH  010%=      5-min Rain = 0
KVA1 130036Z 20012KT 39/01 A2998 RMK A01 T03930013  RH  009%=      5-min Rain = 0
KVA1 130037Z 22009KT 39/01 A2998 RMK A01 T03930013  RH  009%=      5-min Rain = 0
KVA1 130038Z 23006KT 39/01 A2998 RMK A01 T03930014  RH  010%=      5-min Rain = 0
KVA1 130039Z 20006KT 39/01 A2998 RMK A01 T03920014  RH  010%=      5-min Rain = 0
KVA1 130040Z 20007KT 39/02 A2998 RMK A01 T03920017  RH  010%=      5-min Rain = 0
KVA1 130041Z 20007KT 39/02 A2998 RMK A01 T03930019  RH  010%=      5-min Rain = 0
KVA1 130042Z 21009KT 40/02 A2998 RMK A01 T03950018  RH  010%=      5-min Rain = 0
KVA1 130043Z 19009KT 39/02 A2998 RMK A01 T03940017  RH  010%=      5-min Rain = 0
KVA1 130044Z 20009KT 39/02 A2998 RMK A01 T03930019  RH  010%=      5-min Rain = 0
KVA1 130045Z 19009KT 39/02 A2998 RMK A01 T03920018  RH  010%=      5-min Rain = 0
KVA1 130046Z 19009KT 39/02 A2998 RMK A01 T03910018  RH  010%=      5-min Rain = 0
KVA1 130047Z 21007KT 39/02 A2998 RMK A01 T03900018  RH  010%=      5-min Rain = 0
KVA1 130048Z 22007KT 39/02 A2998 RMK A01 T03900017  RH  010%=      5-min Rain = 0
KVA1 130049Z 22007KT 39/02 A2998 RMK A01 T03910016  RH  010%=      5-min Rain = 0
KVA1 130050Z 20006KT 39/02 A2998 RMK A01 T03910016  RH  010%=      5-min Rain = 0
KVA1 130051Z 21006KT 39/02 A2998 RMK A01 T03910016  RH  010%=      5-min Rain = 0
KVA1 130052Z 20007KT 39/02 A2998 RMK A01 T03910016  RH  010%=      5-min Rain = 0
KVA1 130053Z 20008KT 39/02 A2998 RMK A01 T03910018  RH  010%=      5-min Rain = 0
KVA1 130054Z 21009KT 39/02 A2998 RMK A01 T03910019  RH  010%=      5-min Rain = 0
KVA1 130055Z 21009KT 39/02 A2998 RMK A01 T03910018  RH  010%=      5-min Rain = 0
KVA1 130056Z 21008KT 39/02 A2998 RMK A01 T03900017  RH  010%=      5-min Rain = 0
KVA1 130057Z 20009KT 39/02 A2998 RMK A01 T03900017  RH  010%=      5-min Rain = 0
KVA1 130058Z 19009KT 39/02 A2998 RMK A01 T03910019  RH  010%=      5-min Rain = 0
KVA1 130059Z 18008KT 39/02 A2998 RMK A01 T03900019  RH  010%=      5-min Rain = 0
KVA1 130100Z 20007KT 39/02 A2998 RMK A01 T03890020  RH  010%=      5-min Rain = 0
KVA1 130101Z 20007KT 39/02 A2998 RMK A01 T03890018  RH  010%=      5-min Rain = 0
KVA1 130102Z 20006KT 39/02 A2998 RMK A01 T03880018  RH  010%=      5-min Rain = 0
KVA1 130103Z 20006KT 39/02 A2998 RMK A01 T03870018  RH  010%=      5-min Rain = 0
KVA1 130104Z 18007KT 39/02 A2998 RMK A01 T03870019  RH  010%=      5-min Rain = 0
KVA1 130105Z 18007KT 39/02 A2998 RMK A01 T03880021  RH  010%=      5-min Rain = 0
KVA1 130106Z 19008KT 39/02 A2998 RMK A01 T03890021  RH  010%=      5-min Rain = 0
KVA1 130107Z 19011KT 39/02 A2998 RMK A01 T03890024  RH  010%=      5-min Rain = 0
KVA1 130108Z 19011KT 39/03 A2998 RMK A01 T03880025  RH  011%=      5-min Rain = 0
KVA1 130109Z 19011KT 39/03 A2998 RMK A01 T03870026  RH  011%=      5-min Rain = 0
KVA1 130110Z 20010KT 39/03 A2998 RMK A01 T03870026  RH  011%=      5-min Rain = 0
KVA1 130111Z 19010KT 39/03 A2998 RMK A01 T03860025  RH  011%=      5-min Rain = 0
KVA1 130112Z 18009KT 39/03 A2998 RMK A01 T03860026  RH  011%=      5-min Rain = 0
KVA1 130113Z 19008KT 39/03 A2998 RMK A01 T03860025  RH  011%=      5-min Rain = 0
KVA1 130114Z 21008KT 39/03 A2998 RMK A01 T03860025  RH  011%=      5-min Rain = 0
KVA1 130115Z 20009KT 39/02 A2998 RMK A01 T03860024  RH  011%=      5-min Rain = 0
KVA1 130116Z 20009KT 39/03 A2998 RMK A01 T03860025  RH  011%=      5-min Rain = 0
KVA1 130117Z 20010KT 39/02 A2998 RMK A01 T03850024  RH  011%=      5-min Rain = 0
KVA1 130118Z 20008KT 39/02 A2998 RMK A01 T03850023  RH  011%=      5-min Rain = 0
KVA1 130119Z 20009KT 39/02 A2998 RMK A01 T03850023  RH  011%=      5-min Rain = 0
KVA1 130120Z 20009KT 38/02 A2998 RMK A01 T03840024  RH  011%=      5-min Rain = 0
KVA1 130121Z 20007KT 38/02 A2998 RMK A01 T03840024  RH  011%=      5-min Rain = 0
KVA1 130122Z 21007KT 38/03 A2998 RMK A01 T03840025  RH  011%=      5-min Rain = 0
KVA1 130123Z 21008KT 38/02 A2998 RMK A01 T03840022  RH  011%=      5-min Rain = 0
KVA1 130124Z 20006KT 38/02 A2998 RMK A01 T03840022  RH  011%=      5-min Rain = 0
KVA1 130125Z 21005KT 38/02 A2998 RMK A01 T03840022  RH  011%=      5-min Rain = 0
KVA1 130126Z 21006KT 39/02 A2998 RMK A01 T03850024  RH  011%=      5-min Rain = 0
KVA1 130127Z 20009KT 38/02 A2998 RMK A01 T03840023  RH  011%=      5-min Rain = 0
KVA1 130128Z 19008KT 38/02 A2998 RMK A01 T03830022  RH  011%=      5-min Rain = 0
KVA1 130129Z 19007KT 38/02 A2998 RMK A01 T03820022  RH  011%=      5-min Rain = 0
KVA1 130130Z 19009KT 38/02 A2998 RMK A01 T03820023  RH  011%=      5-min Rain = 0
KVA1 130131Z 19007KT 38/02 A2998 RMK A01 T03810023  RH  011%=      5-min Rain = 0
KVA1 130132Z 18007KT 38/02 A2998 RMK A01 T03810024  RH  011%=      5-min Rain = 0
KVA1 130133Z 20007KT 38/02 A2998 RMK A01 T03810024  RH  011%=      5-min Rain = 0
KVA1 130134Z 20005KT 38/02 A2998 RMK A01 T03810024  RH  011%=      5-min Rain = 0
KVA1 130135Z 20006KT 38/02 A2998 RMK A01 T03800024  RH  011%=      5-min Rain = 0
KVA1 130136Z 20006KT 38/02 A2998 RMK A01 T03800024  RH  011%=      5-min Rain = 0
KVA1 130137Z 20008KT 38/03 A2998 RMK A01 T03800025  RH  011%=      5-min Rain = 0
KVA1 130138Z 19008KT 38/02 A2998 RMK A01 T03800024  RH  011%=      5-min Rain = 0
KVA1 130139Z 19006KT 38/03 A2998 RMK A01 T03790025  RH  011%=      5-min Rain = 0
KVA1 130140Z 19006KT 38/03 A2998 RMK A01 T03790025  RH  011%=      5-min Rain = 0
KVA1 130141Z 19007KT 38/03 A2998 RMK A01 T03780025  RH  011%=      5-min Rain = 0
KVA1 130142Z 19006KT 38/02 A2998 RMK A01 T03780024  RH  011%=      5-min Rain = 0
KVA1 130143Z 19006KT 38/03 A2998 RMK A01 T03770025  RH  011%=      5-min Rain = 0
KVA1 130144Z 19007KT 38/03 A2998 RMK A01 T03770025  RH  011%=      5-min Rain = 0
KVA1 130145Z 19006KT 38/03 A2998 RMK A01 T03760025  RH  011%=      5-min Rain = 0
KVA1 130146Z 19006KT 38/03 A2998 RMK A01 T03760025  RH  011%=      5-min Rain = 0
KVA1 130147Z 19006KT 38/03 A2998 RMK A01 T03750025  RH  011%=      5-min Rain = 0
KVA1 130148Z 19005KT 38/03 A2998 RMK A01 T03750025  RH  011%=      5-min Rain = 0
KVA1 130149Z 19005KT 37/03 A2998 RMK A01 T03740026  RH  012%=      5-min Rain = 0
KVA1 130150Z 19006KT 37/02 A2998 RMK A01 T03730024  RH  011%=      5-min Rain = 0
KVA1 130151Z 19007KT 37/02 A2998 RMK A01 T03730024  RH  011%=      5-min Rain = 0
KVA1 130152Z 19006KT 37/03 A2998 RMK A01 T03730025  RH  011%=      5-min Rain = 0
KVA1 130153Z 19006KT 37/02 A2998 RMK A01 T03720024  RH  012%=      5-min Rain = 0
KVA1 130154Z 19006KT 37/02 A2998 RMK A01 T03710024  RH  012%=      5-min Rain = 0
KVA1 130155Z 19006KT 37/03 A2998 RMK A01 T03700025  RH  012%=      5-min Rain = 0
KVA1 130156Z 19006KT 37/03 A2998 RMK A01 T03700025  RH  012%=      5-min Rain = 0
KVA1 130157Z 19005KT 37/02 A2998 RMK A01 T03700024  RH  012%=      5-min Rain = 0
KVA1 130158Z 19006KT 37/02 A2998 RMK A01 T03690024  RH  012%=      5-min Rain = 0
KVA1 130159Z 19006KT 37/02 A2998 RMK A01 T03690024  RH  012%=      5-min Rain = 0
KVA1 130200Z 19005KT 37/03 A2998 RMK A01 T03680025  RH  012%=      5-min Rain = 0
KVA1 130201Z 19006KT 37/03 A2998 RMK A01 T03680025  RH  012%=      5-min Rain = 0
KVA1 130202Z 19005KT 37/03 A2998 RMK A01 T03670025  RH  012%=      5-min Rain = 0
KVA1 130203Z 19006KT 37/03 A2998 RMK A01 T03660025  RH  012%=      5-min Rain = 0
KVA1 130204Z 19005KT 37/03 A2998 RMK A01 T03660026  RH  012%=      5-min Rain = 0
KVA1 130205Z 19005KT 37/03 A2998 RMK A01 T03650025  RH  012%=      5-min Rain = 0
KVA1 130206Z 19005KT 36/03 A2998 RMK A01 T03640026  RH  012%=      5-min Rain = 0
KVA1 130207Z 19006KT 36/03 A2998 RMK A01 T03640026  RH  012%=      5-min Rain = 0
KVA1 130208Z 19005KT 36/03 A2998 RMK A01 T03630025  RH  012%=      5-min Rain = 0
KVA1 130209Z 19006KT 36/03 A2998 RMK A01 T03630026  RH  012%=      5-min Rain = 0
KVA1 130210Z 19005KT 36/03 A2998 RMK A01 T03620026  RH  012%=      5-min Rain = 0
KVA1 130211Z 19006KT 36/03 A2998 RMK A01 T03620027  RH  012%=      5-min Rain = 0
KVA1 130212Z 19005KT 36/03 A2998 RMK A01 T03610027  RH  012%=      5-min Rain = 0
KVA1 130213Z 19006KT 36/03 A2998 RMK A01 T03610026  RH  012%=      5-min Rain = 0
KVA1 130214Z 19006KT 36/03 A2998 RMK A01 T03600026  RH  012%=      5-min Rain = 0
KVA1 130215Z 19006KT 36/03 A2998 RMK A01 T03590027  RH  012%=      5-min Rain = 0
KVA1 130216Z 19006KT 36/03 A2998 RMK A01 T03590027  RH  013%=      5-min Rain = 0
KVA1 130217Z 19006KT 36/03 A2998 RMK A01 T03580027  RH  013%=      5-min Rain = 0
KVA1 130218Z 19006KT 36/03 A2998 RMK A01 T03570027  RH  013%=      5-min Rain = 0
KVA1 130219Z 19006KT 36/03 A2998 RMK A01 T03570027  RH  013%=      5-min Rain = 0
KVA1 130220Z 19006KT 36/03 A2998 RMK A01 T03560027  RH  013%=      5-min Rain = 0
KVA1 130221Z 19006KT 36/03 A2998 RMK A01 T03560028  RH  013%=      5-min Rain = 0
KVA1 130222Z 19006KT 36/03 A2998 RMK A01 T03550028  RH  013%=      5-min Rain = 0
KVA1 130223Z 19006KT 35/03 A2998 RMK A01 T03540028  RH  013%=      5-min Rain = 0
KVA1 130224Z 18006KT 35/03 A2998 RMK A01 T03530028  RH  013%=      5-min Rain = 0
KVA1 130225Z 18006KT 35/03 A2998 RMK A01 T03530029  RH  013%=      5-min Rain = 0
KVA1 130226Z 18006KT 35/03 A2998 RMK A01 T03520028  RH  013%=      5-min Rain = 0
KVA1 130227Z 18006KT 35/03 A2998 RMK A01 T03510028  RH  013%=      5-min Rain = 0
KVA1 130228Z 18005KT 35/03 A2998 RMK A01 T03510028  RH  013%=      5-min Rain = 0
KVA1 130229Z 18006KT 35/03 A2998 RMK A01 T03500028  RH  013%=      5-min Rain = 0
KVA1 130230Z 18006KT 35/03 A2998 RMK A01 T03500028  RH  013%=      5-min Rain = 0
KVA1 130231Z 18005KT 35/03 A2998 RMK A01 T03490028  RH  013%=      5-min Rain = 0
KVA1 130232Z 18005KT 35/03 A2998 RMK A01 T03490027  RH  013%=      5-min Rain = 0
KVA1 130233Z 18005KT 35/03 A2998 RMK A01 T03480027  RH  013%=      5-min Rain = 0
KVA1 130234Z 18005KT 35/03 A2998 RMK A01 T03470027  RH  013%=      5-min Rain = 0
KVA1 130235Z 18006KT 35/03 A2998 RMK A01 T03470027  RH  013%=      5-min Rain = 0
KVA1 130236Z 17005KT 35/03 A2998 RMK A01 T03470026  RH  013%=      5-min Rain = 0
KVA1 130237Z 18005KT 35/03 A2998 RMK A01 T03460026  RH  013%=      5-min Rain = 0
KVA1 130238Z 18006KT 35/03 A2998 RMK A01 T03460026  RH  013%=      5-min Rain = 0
KVA1 130239Z 18006KT 35/03 A2998 RMK A01 T03460027  RH  013%=      5-min Rain = 0
KVA1 130240Z 17005KT 35/03 A2998 RMK A01 T03460027  RH  014%=      5-min Rain = 0
KVA1 130241Z 18006KT 35/03 A2998 RMK A01 T03450026  RH  014%=      5-min Rain = 0
KVA1 130242Z 18005KT 34/03 A2998 RMK A01 T03440026  RH  014%=      5-min Rain = 0
KVA1 130243Z 18005KT 34/03 A2999 RMK A01 T03440026  RH  014%=      5-min Rain = 0
KVA1 130244Z 17006KT 34/03 A2999 RMK A01 T03430026  RH  014%=      5-min Rain = 0
KVA1 130245Z 17006KT 34/03 A2999 RMK A01 T03430027  RH  014%=      5-min Rain = 0
KVA1 130246Z 18006KT 34/03 A2999 RMK A01 T03430027  RH  014%=      5-min Rain = 0
KVA1 130247Z 17005KT 34/03 A2999 RMK A01 T03420027  RH  014%=      5-min Rain = 0
KVA1 130248Z 18006KT 34/03 A2999 RMK A01 T03420027  RH  014%=      5-min Rain = 0
KVA1 130249Z 18006KT 34/03 A2999 RMK A01 T03410027  RH  014%=      5-min Rain = 0
KVA1 130250Z 18006KT 34/03 A2999 RMK A01 T03400027  RH  014%=      5-min Rain = 0
KVA1 130251Z 19006KT 34/03 A2999 RMK A01 T03400026  RH  014%=      5-min Rain = 0
KVA1 130252Z 21006KT 34/03 A2999 RMK A01 T03410025  RH  014%=      5-min Rain = 0
KVA1 130253Z 22006KT 34/03 A2999 RMK A01 T03400025  RH  014%=      5-min Rain = 0
KVA1 130254Z 22008KT 34/02 A2999 RMK A01 T03390024  RH  014%=      5-min Rain = 0
KVA1 130255Z 20008KT 34/03 A2999 RMK A01 T03380025  RH  014%=      5-min Rain = 0
KVA1 130256Z 19007KT 34/03 A2999 RMK A01 T03380026  RH  014%=      5-min Rain = 0
KVA1 130257Z 19007KT 34/03 A2999 RMK A01 T03410027  RH  014%=      5-min Rain = 0
KVA1 130258Z 20008KT 34/03 A2999 RMK A01 T03430027  RH  014%=      5-min Rain = 0
KVA1 130259Z 20007KT 34/03 A2999 RMK A01 T03440027  RH  014%=      5-min Rain = 0
KVA1 130300Z 21006KT 34/03 A2999 RMK A01 T03440026  RH  014%=      5-min Rain = 0
KVA1 130301Z 21006KT 34/03 A2999 RMK A01 T03420026  RH  014%=      5-min Rain = 0
KVA1 130302Z 21007KT 34/03 A2999 RMK A01 T03410026  RH  014%=      5-min Rain = 0
KVA1 130303Z 21006KT 34/03 A2999 RMK A01 T03390027  RH  014%=      5-min Rain = 0
KVA1 130304Z 20008KT 34/03 A2999 RMK A01 T03380027  RH  014%=      5-min Rain = 0
KVA1 130305Z 20007KT 34/03 A2999 RMK A01 T03380027  RH  014%=      5-min Rain = 0
KVA1 130306Z 20006KT 34/03 A30 RMK A01 T03380026  RH  014%=      5-min Rain = 0
KVA1 130307Z 20006KT 34/03 A30 RMK A01 T03370026  RH  014%=      5-min Rain = 0
KVA1 130308Z 21006KT 34/03 A30 RMK A01 T03370025  RH  014%=      5-min Rain = 0
KVA1 130309Z 21006KT 34/03 A30 RMK A01 T03370025  RH  014%=      5-min Rain = 0
KVA1 130310Z 21006KT 34/03 A30 RMK A01 T03370025  RH  014%=      5-min Rain = 0
KVA1 130311Z 21006KT 34/03 A30 RMK A01 T03370025  RH  014%=      5-min Rain = 0
KVA1 130312Z 20005KT 34/03 A30 RMK A01 T03360025  RH  014%=      5-min Rain = 0
KVA1 130313Z 20006KT 34/03 A30 RMK A01 T03360026  RH  014%=      5-min Rain = 0
KVA1 130314Z 20006KT 34/03 A30 RMK A01 T03350026  RH  014%=      5-min Rain = 0
KVA1 130315Z 21006KT 34/03 A30 RMK A01 T03350026  RH  014%=      5-min Rain = 0
KVA1 130316Z 21006KT 33/03 A30 RMK A01 T03340026  RH  014%=      5-min Rain = 0
KVA1 130317Z 21006KT 33/03 A30 RMK A01 T03320026  RH  014%=      5-min Rain = 0
KVA1 130318Z 21005KT 33/03 A30 RMK A01 T03310025  RH  014%=      5-min Rain = 0
KVA1 130319Z 21006KT 33/03 A30 RMK A01 T03300026  RH  015%=      5-min Rain = 0
KVA1 130320Z 21006KT 33/03 A30 RMK A01 T03290026  RH  015%=      5-min Rain = 0
KVA1 130321Z 21006KT 33/03 A30 RMK A01 T03290026  RH  015%=      5-min Rain = 0
KVA1 130322Z 21006KT 33/03 A30 RMK A01 T03290026  RH  015%=      5-min Rain = 0
KVA1 130323Z 22005KT 33/03 A30 RMK A01 T03270026  RH  015%=      5-min Rain = 0
KVA1 130324Z 22006KT 33/03 A30 RMK A01 T03270026  RH  015%=      5-min Rain = 0
KVA1 130325Z 22006KT 33/03 A30 RMK A01 T03250026  RH  015%=      5-min Rain = 0
KVA1 130326Z 21006KT 33/03 A30 RMK A01 T03250026  RH  015%=      5-min Rain = 0
KVA1 130327Z 21006KT 32/03 A30 RMK A01 T03240026  RH  015%=      5-min Rain = 0
KVA1 130328Z 22006KT 32/03 A30 RMK A01 T03230026  RH  015%=      5-min Rain = 0
KVA1 130329Z 21006KT 32/03 A30 RMK A01 T03230026  RH  015%=      5-min Rain = 0
KVA1 130330Z 21006KT 32/03 A3001 RMK A01 T03220026  RH  015%=      5-min Rain = 0
KVA1 130331Z 22006KT 32/03 A3001 RMK A01 T03210026  RH  015%=      5-min Rain = 0
KVA1 130332Z 22006KT 32/03 A3001 RMK A01 T03210025  RH  015%=      5-min Rain = 0
KVA1 130333Z 22006KT 32/03 A3001 RMK A01 T03200026  RH  015%=      5-min Rain = 0
KVA1 130334Z 21005KT 32/03 A3001 RMK A01 T03190025  RH  015%=      5-min Rain = 0
KVA1 130335Z 22006KT 32/03 A3001 RMK A01 T03190026  RH  016%=      5-min Rain = 0
KVA1 130336Z 21006KT 32/03 A3001 RMK A01 T03190025  RH  016%=      5-min Rain = 0
KVA1 130337Z 22006KT 32/03 A3001 RMK A01 T03180025  RH  016%=      5-min Rain = 0
KVA1 130338Z 22006KT 32/02 A3001 RMK A01 T03180024  RH  015%=      5-min Rain = 0
KVA1 130339Z 22006KT 32/02 A3001 RMK A01 T03180024  RH  015%=      5-min Rain = 0
KVA1 130340Z 22006KT 32/02 A3001 RMK A01 T03170024  RH  016%=      5-min Rain = 0
KVA1 130341Z 22006KT 32/02 A3001 RMK A01 T03170024  RH  016%=      5-min Rain = 0
KVA1 130342Z 21006KT 32/02 A3001 RMK A01 T03160023  RH  016%=      5-min Rain = 0
KVA1 130343Z 21005KT 32/02 A3001 RMK A01 T03150023  RH  016%=      5-min Rain = 0
KVA1 130344Z 22006KT 32/02 A3001 RMK A01 T03150023  RH  016%=      5-min Rain = 0
KVA1 130345Z 21006KT 31/02 A3001 RMK A01 T03140022  RH  016%=      5-min Rain = 0
KVA1 130346Z 21006KT 31/02 A3001 RMK A01 T03140022  RH  016%=      5-min Rain = 0
KVA1 130347Z 21006KT 31/02 A3001 RMK A01 T03140021  RH  015%=      5-min Rain = 0
KVA1 130348Z 20006KT 31/02 A3001 RMK A01 T03140020  RH  015%=      5-min Rain = 0
KVA1 130349Z 21006KT 31/02 A3001 RMK A01 T03140019  RH  015%=      5-min Rain = 0
KVA1 130350Z 21006KT 31/02 A3001 RMK A01 T03130018  RH  015%=      5-min Rain = 0
KVA1 130351Z 21006KT 31/02 A3001 RMK A01 T03130017  RH  015%=      5-min Rain = 0
KVA1 130352Z 21006KT 31/02 A3001 RMK A01 T03130017  RH  015%=      5-min Rain = 0
KVA1 130353Z 21006KT 31/02 A3001 RMK A01 T03130017  RH  015%=      5-min Rain = 0
KVA1 130354Z 21006KT 31/02 A3001 RMK A01 T03130016  RH  015%=      5-min Rain = 0
KVA1 130355Z 20006KT 31/02 A3001 RMK A01 T03130015  RH  015%=      5-min Rain = 0
KVA1 130356Z 21006KT 31/01 A3001 RMK A01 T03120014  RH  015%=      5-min Rain = 0
KVA1 130357Z 21006KT 31/01 A3001 RMK A01 T03120014  RH  015%=      5-min Rain = 0
KVA1 130358Z 21005KT 31/01 A3001 RMK A01 T03110013  RH  015%=      5-min Rain = 0
KVA1 130359Z 22005KT 31/01 A3002 RMK A01 T03110012  RH  015%=      5-min Rain = 0
KVA1 130400Z 22005KT 31/01 A3002 RMK A01 T03100012  RH  015%=      5-min Rain = 0
KVA1 130401Z 22006KT 31/01 A3002 RMK A01 T03100011  RH  015%=      5-min Rain = 0
KVA1 130402Z 22006KT 31/01 A3002 RMK A01 T03090010  RH  015%=      5-min Rain = 0
KVA1 130403Z 22006KT 31/01 A3002 RMK A01 T03090010  RH  015%=      5-min Rain = 0
KVA1 130404Z 22006KT 31/01 A3002 RMK A01 T03080010  RH  015%=      5-min Rain = 0
KVA1 130405Z 22006KT 31/01 A3002 RMK A01 T03080009  RH  015%=      5-min Rain = 0
KVA1 130406Z 22006KT 31/01 A3002 RMK A01 T03070009  RH  015%=      5-min Rain = 0
KVA1 130407Z 21006KT 31/01 A3002 RMK A01 T03070009  RH  015%=      5-min Rain = 0
KVA1 130408Z 22006KT 31/01 A3002 RMK A01 T03060009  RH  015%=      5-min Rain = 0
KVA1 130409Z 22006KT 31/01 A3002 RMK A01 T03060008  RH  015%=      5-min Rain = 0
KVA1 130410Z 21006KT 31/01 A3002 RMK A01 T03050008  RH  015%=      5-min Rain = 0
KVA1 130411Z 22006KT 31/01 A3002 RMK A01 T03050007  RH  015%=      5-min Rain = 0
KVA1 130412Z 22006KT 31/01 A3002 RMK A01 T03050007  RH  015%=      5-min Rain = 0
KVA1 130413Z 22006KT 30/01 A3002 RMK A01 T03040006  RH  015%=      5-min Rain = 0
KVA1 130414Z 22007KT 30/01 A3002 RMK A01 T03040006  RH  015%=      5-min Rain = 0
KVA1 130415Z 21006KT 30/01 A3002 RMK A01 T03040006  RH  015%=      5-min Rain = 0
KVA1 130416Z 22006KT 31/01 A3002 RMK A01 T03050006  RH  015%=      5-min Rain = 0
KVA1 130417Z 22007KT 31/01 A3002 RMK A01 T03050006  RH  015%=      5-min Rain = 0
KVA1 130418Z 22007KT 30/01 A3002 RMK A01 T03040005  RH  015%=      5-min Rain = 0
KVA1 130419Z 22007KT 30/01 A3002 RMK A01 T03040005  RH  015%=      5-min Rain = 0
KVA1 130420Z 22007KT 31/01 A3002 RMK A01 T03050005  RH  015%=      5-min Rain = 0
KVA1 130421Z 22007KT 31/01 A3002 RMK A01 T03050005  RH  015%=      5-min Rain = 0
KVA1 130422Z 22007KT 30/00 A3002 RMK A01 T03040004  RH  015%=      5-min Rain = 0
KVA1 130423Z 22007KT 31/00 A3002 RMK A01 T03050004  RH  014%=      5-min Rain = 0
KVA1 130424Z 23007KT 31/00 A3002 RMK A01 T03050004  RH  014%=      5-min Rain = 0
KVA1 130425Z 23006KT 31/01 A3002 RMK A01 T03050005  RH  015%=      5-min Rain = 0
KVA1 130426Z 22007KT 30/01 A3002 RMK A01 T03030005  RH  015%=      5-min Rain = 0
KVA1 130427Z 22007KT 30/01 A3002 RMK A01 T03030005  RH  015%=      5-min Rain = 0
KVA1 130428Z 22007KT 30/00 A3002 RMK A01 T03020004  RH  015%=      5-min Rain = 0
KVA1 130429Z 22007KT 30/00 A3002 RMK A01 T03020004  RH  015%=      5-min Rain = 0
KVA1 130430Z 21007KT 30/00 A3002 RMK A01 T03020004  RH  015%=      5-min Rain = 0
KVA1 130431Z 22007KT 30/00 A3002 RMK A01 T03020004  RH  015%=      5-min Rain = 0
KVA1 130432Z 23006KT 30/00 A3002 RMK A01 T03020004  RH  015%=      5-min Rain = 0
KVA1 130433Z 23006KT 30/00 A3002 RMK A01 T03020004  RH  015%=      5-min Rain = 0
KVA1 130434Z 22006KT 30/01 A3002 RMK A01 T03010005  RH  015%=      5-min Rain = 0
KVA1 130435Z 22006KT 30/01 A3002 RMK A01 T03000006  RH  015%=      5-min Rain = 0
KVA1 130436Z 23007KT 30/01 A3002 RMK A01 T02990005  RH  015%=      5-min Rain = 0
KVA1 130437Z 22007KT 30/01 A3002 RMK A01 T02990005  RH  015%=      5-min Rain = 0
KVA1 130438Z 23007KT 30/01 A3002 RMK A01 T02990005  RH  015%=      5-min Rain = 0
KVA1 130439Z 23006KT 30/00 A3002 RMK A01 T02990004  RH  015%=      5-min Rain = 0
KVA1 130440Z 23006KT 30/01 A3002 RMK A01 T03000005  RH  015%=      5-min Rain = 0
KVA1 130441Z 23006KT 30/01 A3002 RMK A01 T02990005  RH  015%=      5-min Rain = 0
KVA1 130442Z 22006KT 30/01 A3002 RMK A01 T02970005  RH  015%=      5-min Rain = 0
KVA1 130443Z 22006KT 30/01 A3002 RMK A01 T02970006  RH  015%=      5-min Rain = 0
KVA1 130444Z 22007KT 30/01 A3002 RMK A01 T02970006  RH  015%=      5-min Rain = 0
KVA1 130445Z 22006KT 30/01 A3002 RMK A01 T02960005  RH  015%=      5-min Rain = 0
KVA1 130446Z 23006KT 30/01 A3002 RMK A01 T02960005  RH  015%=      5-min Rain = 0
KVA1 130447Z 23006KT 30/01 A3002 RMK A01 T02960005  RH  015%=      5-min Rain = 0
KVA1 130448Z 23006KT 30/01 A3002 RMK A01 T02950005  RH  015%=      5-min Rain = 0
KVA1 130449Z 23006KT 29/01 A3002 RMK A01 T02940005  RH  015%=      5-min Rain = 0
KVA1 130450Z 22006KT 29/01 A3002 RMK A01 T02930005  RH  016%=      5-min Rain = 0
KVA1 130451Z 23006KT 29/01 A3002 RMK A01 T02920005  RH  016%=      5-min Rain = 0
KVA1 130452Z 23006KT 29/01 A3002 RMK A01 T02910005  RH  016%=      5-min Rain = 0
KVA1 130453Z 23006KT 29/01 A3002 RMK A01 T02910005  RH  016%=      5-min Rain = 0
KVA1 130454Z 23007KT 29/01 A3002 RMK A01 T02900006  RH  016%=      5-min Rain = 0
KVA1 130455Z 23007KT 29/01 A3002 RMK A01 T02890006  RH  016%=      5-min Rain = 0
KVA1 130456Z 24007KT 29/01 A3002 RMK A01 T02890006  RH  016%=      5-min Rain = 0
KVA1 130457Z 24006KT 29/01 A3002 RMK A01 T02890007  RH  016%=      5-min Rain = 0
KVA1 130458Z 23006KT 29/01 A3002 RMK A01 T02880007  RH  016%=      5-min Rain = 0
KVA1 130459Z 23007KT 29/01 A3002 RMK A01 T02880007  RH  016%=      5-min Rain = 0

Page generated in 0.0711 seconds.